M I D A S
Marine Information and Data Acquisition System
Tripno 672 of the Zeeleeuw from 2004-03-19 07:12:58 to 2004-03-19 13:07:22
Back to CruiseResearch ActivitiesStationsMapUnderway DataData graphs

EquipmentUnitsComment
TimeDGPSUTC
LatitudeDGPSDM.mWGS84
LongitudeDGPSDM.mWGS84
TemperatureSBE03/SBE38deg celciusITS90
ConductivitySBE21S/mITS90
SalinitySBE21 Practical Salinity Units
ChlorophylAChelsea fluorimeterg/lCalibrated in Aceton
Missing or incorrect values are displayed as -999
Sea surface data collected by the RV Zeeleeuw from 2004-03-19 07:12:58 to 2004-03-19 13:07:22
                                                                                    Next 1000 lines
Time Latitude Longitude Temperature Conductivity Salinity ChlorophylA
2004-03-19 07:13:03 51°13.59 2°56.103 13.587198 0.010793 0.05887 0.600836
2004-03-19 07:13:09 51°13.592 2°56.099 13.59857 0.010793 0.058872 0.567127
2004-03-19 07:13:14 51°13.593 2°56.095 13.61518 0.010793 0.058873 0.600836
2004-03-19 07:13:19 51°13.594 2°56.09 13.623306 0.010793 0.058875 0.567127
2004-03-19 07:13:25 51°13.596 2°56.084 13.623306 0.010793 0.058875 0.567127
2004-03-19 07:13:29 51°13.597 2°56.079 13.618111 0.010793 0.058878 0.567127
2004-03-19 07:13:35 51°13.6 2°56.072 13.644172 0.010793 0.05888 0.567127
2004-03-19 07:13:39 51°13.601 2°56.067 13.665963 0.010793 0.058882 0.567127
2004-03-19 07:13:45 51°13.603 2°56.061 13.759037 0.010793 0.058884 0.600836
2004-03-19 07:13:49 51°13.604 2°56.057 13.758683 0.010793 0.058885 0.533418
2004-03-19 07:13:55 51°13.605 2°56.055 13.758683 0.010793 0.058885 0.533418
2004-03-19 07:13:59 51°13.605 2°56.055 13.870743 0.010793 0.058887 0.567127
2004-03-19 07:14:03 51°13.605 2°56.056 13.803866 0.010793 0.058889 0.600836
2004-03-19 07:14:09 51°13.604 2°56.06 13.671465 0.010793 0.05889 0.600836
2004-03-19 07:14:14 51°13.603 2°56.064 13.657354 0.010793 0.058892 0.600836
2004-03-19 07:14:19 51°13.602 2°56.069 13.665164 0.010793 0.058893 0.600836
2004-03-19 07:14:25 51°13.599 2°56.076 13.665164 0.010793 0.058893 0.600836
2004-03-19 07:14:30 51°13.597 2°56.081 13.566226 0.010793 0.058894 0.600836
2004-03-19 07:14:35 51°13.594 2°56.086 13.54098 0.010793 0.058893 0.567127
2004-03-19 07:14:39 51°13.592 2°56.09 13.58902 0.010793 0.058898 0.533418
2004-03-19 07:14:45 51°13.589 2°56.097 13.694932 0.010793 0.058904 0.600836
2004-03-19 07:14:50 51°13.586 2°56.102 13.698525 0.010793 0.058906 0.567127
2004-03-19 07:14:53 51°13.584 2°56.105 13.698525 0.010793 0.058906 0.567127
2004-03-19 07:14:59 51°13.58 2°56.111 13.715775 0.010793 0.058908 0.567127
2004-03-19 07:15:03 51°13.577 2°56.115 13.715908 0.010793 0.058909 0.567127
2004-03-19 07:15:09 51°13.573 2°56.121 13.696529 0.010793 0.05891 0.567127
2004-03-19 07:15:14 51°13.569 2°56.127 13.743659 0.010793 0.058912 0.567127
2004-03-19 07:15:19 51°13.566 2°56.133 13.703536 0.010793 0.058913 0.600836
2004-03-19 07:15:23 51°13.562 2°56.139 13.703536 0.010793 0.058913 0.600836
2004-03-19 07:15:29 51°13.557 2°56.147 13.712982 0.010793 0.058915 0.600836
2004-03-19 07:15:34 51°13.553 2°56.155 13.702073 0.010793 0.058917 0.600836
2004-03-19 07:15:39 51°13.55 2°56.162 13.669246 0.010793 0.058919 0.533418
2004-03-19 07:15:45 51°13.545 2°56.17 13.67497 0.010793 0.058921 0.533418
2004-03-19 07:15:49 51°13.543 2°56.176 13.716972 0.010793 0.058923 0.567127
2004-03-19 07:15:54 51°13.54 2°56.184 13.716972 0.010793 0.058923 0.567127
2004-03-19 07:15:59 51°13.538 2°56.192 13.795097 0.010793 0.058926 0.567127
2004-03-19 07:16:05 51°13.535 2°56.202 13.804707 0.010793 0.058928 0.567127
2004-03-19 07:16:09 51°13.535 2°56.209 13.836494 0.010793 0.058931 0.567127
2004-03-19 07:16:14 51°13.534 2°56.217 13.783714 0.010793 0.058934 0.533418
2004-03-19 07:16:19 51°13.534 2°56.226 13.764355 0.010793 0.058936 0.533418
2004-03-19 07:16:24 51°13.535 2°56.233 13.764355 0.010793 0.058936 0.533418
2004-03-19 07:16:29 51°13.536 2°56.24 13.612161 0.010793 0.058939 0.567127
2004-03-19 07:16:33 51°13.536 2°56.244 13.623262 0.010793 0.058941 0.533418
2004-03-19 07:16:39 51°13.537 2°56.248 13.693823 0.010793 0.058945 0.567127
2004-03-19 07:16:43 51°13.538 2°56.249 13.754916 0.010793 0.058947 0.567127
2004-03-19 07:16:49 51°13.538 2°56.25 13.641686 0.010793 0.05895 0.567127
2004-03-19 07:16:54 51°13.538 2°56.249 13.641686 0.010793 0.05895 0.567127
2004-03-19 07:16:59 51°13.538 2°56.248 13.661037 0.010793 0.058952 0.567127
2004-03-19 07:17:05 51°13.537 2°56.246 13.634539 0.010793 0.058954 0.533418
2004-03-19 07:17:09 51°13.536 2°56.244 13.74654 0.010793 0.058957 0.533418
2004-03-19 07:17:15 51°13.535 2°56.24 13.708946 0.010793 0.05896 0.567127
2004-03-19 07:17:19 51°13.535 2°56.237 13.683088 0.010793 0.058963 0.533418
2004-03-19 07:17:25 51°13.534 2°56.233 13.683088 0.010793 0.058963 0.533418
2004-03-19 07:17:30 51°13.533 2°56.23 13.727081 0.010793 0.058966 0.533418
2004-03-19 07:17:35 51°13.533 2°56.228 13.758506 0.010793 0.058968 0.499708
2004-03-19 07:17:39 51°13.532 2°56.227 13.735371 0.010793 0.058971 0.567127
2004-03-19 07:17:45 51°13.533 2°56.227 13.746806 0.010793 0.058974 0.567127
2004-03-19 07:17:50 51°13.533 2°56.228 13.784556 0.010793 0.058976 0.533418
2004-03-19 07:17:55 51°13.534 2°56.23 13.784556 0.010793 0.058976 0.533418
2004-03-19 07:17:59 51°13.536 2°56.232 13.795053 0.010793 0.058979 0.533418
2004-03-19 07:18:05 51°13.538 2°56.236 13.870433 0.010793 0.058982 0.533418
2004-03-19 07:18:10 51°13.54 2°56.238 13.768962 0.010793 0.058984 0.567127
2004-03-19 07:18:15 51°13.542 2°56.241 13.673816 0.010793 0.058987 0.533418
2004-03-19 07:18:19 51°13.543 2°56.242 13.645947 0.010793 0.05899 0.533418
2004-03-19 07:18:25 51°13.544 2°56.243 13.645947 0.010793 0.05899 0.533418
2004-03-19 07:18:30 51°13.544 2°56.243 13.701895 0.010793 0.058994 0.533418
2004-03-19 07:18:34 51°13.543 2°56.242 13.661436 0.010793 0.058996 0.533418
2004-03-19 07:18:39 51°13.542 2°56.242 13.718657 0.010793 0.058999 0.533418
2004-03-19 07:18:45 51°13.54 2°56.241 13.72349 0.010793 0.059001 0.533418
2004-03-19 07:18:49 51°13.538 2°56.24 13.744457 0.010793 0.059003 0.533418
2004-03-19 07:18:55 51°13.536 2°56.239 13.744457 0.010793 0.059003 0.533418
2004-03-19 07:18:59 51°13.534 2°56.238 13.725485 0.010793 0.059006 0.567127
2004-03-19 07:19:05 51°13.531 2°56.237 13.740424 0.010793 0.059008 0.567127
2004-03-19 07:19:10 51°13.529 2°56.236 13.716928 0.010793 0.05901 0.533418
2004-03-19 07:19:15 51°13.527 2°56.235 13.759259 0.010793 0.059013 0.533418
2004-03-19 07:19:19 51°13.526 2°56.234 13.788587 0.010793 0.059015 0.533418
2004-03-19 07:19:25 51°13.525 2°56.234 13.788587 0.010793 0.059015 0.533418
2004-03-19 07:19:30 51°13.526 2°56.234 13.840123 0.010793 0.059017 0.533418
2004-03-19 07:19:35 51°13.527 2°56.234 13.813164 0.010793 0.059019 0.533418
2004-03-19 07:19:39 51°13.528 2°56.234 13.772064 0.010793 0.059021 0.499708
2004-03-19 07:19:45 51°13.53 2°56.233 13.782518 0.010793 0.059023 0.533418
2004-03-19 07:19:50 51°13.532 2°56.233 13.780924 0.010793 0.059025 0.533418
2004-03-19 07:19:55 51°13.534 2°56.232 13.780924 0.010793 0.059025 0.533418
2004-03-19 07:19:59 51°13.536 2°56.232 13.758727 0.010793 0.059027 0.533418
2004-03-19 07:20:05 51°13.537 2°56.232 13.670799 0.010793 0.05903 0.567127
2004-03-19 07:20:10 51°13.537 2°56.232 13.718613 0.010793 0.059033 0.567127
2004-03-19 07:20:15 51°13.536 2°56.233 13.693956 0.010793 0.059035 0.499708
2004-03-19 07:20:19 51°13.536 2°56.234 13.664498 0.010689 0.05852 0.533418
2004-03-19 07:20:25 51°13.534 2°56.236 13.664498 0.010689 0.05852 0.533418
2004-03-19 07:20:29 51°13.532 2°56.237 13.722204 0.010689 0.058522 0.533418
2004-03-19 07:20:34 51°13.53 2°56.239 13.77357 0.010793 0.059042 0.499708
2004-03-19 07:20:39 51°13.529 2°56.24 13.804751 0.010793 0.059044 0.533418
2004-03-19 07:20:45 51°13.529 2°56.24 13.868177 0.010793 0.059045 0.499708
2004-03-19 07:20:49 51°13.53 2°56.239 13.910457 0.010793 0.059046 0.533418
2004-03-19 07:20:55 51°13.532 2°56.238 13.910457 0.010793 0.059046 0.533418
2004-03-19 07:20:59 51°13.532 2°56.237 13.768564 0.010793 0.059048 0.533418
2004-03-19 07:21:05 51°13.534 2°56.236 13.747914 0.010689 0.058533 0.533418
2004-03-19 07:21:10 51°13.534 2°56.234 13.757619 0.010793 0.059052 0.499708
2004-03-19 07:21:15 51°13.535 2°56.233 13.754384 0.010689 0.058536 0.533418
2004-03-19 07:21:19 51°13.536 2°56.232 13.761607 0.010793 0.059056 0.499708
2004-03-19 07:21:25 51°13.536 2°56.23 13.761607 0.010793 0.059056 0.499708
2004-03-19 07:21:29 51°13.537 2°56.228 13.761519 0.010793 0.059058 0.499708
2004-03-19 07:21:34 51°13.538 2°56.226 13.763202 0.010689 0.058541 0.499708
2004-03-19 07:21:39 51°13.538 2°56.225 13.764 0.010689 0.058543 0.499708
2004-03-19 07:21:43 51°13.538 2°56.223 13.757043 0.010793 0.059062 0.499708
2004-03-19 07:21:49 51°13.538 2°56.22 13.76719 0.010793 0.059064 0.499708
2004-03-19 07:21:54 51°13.539 2°56.217 13.76719 0.010793 0.059064 0.499708
2004-03-19 07:21:59 51°13.539 2°56.214 13.77007 0.010793 0.059066 0.499708
2004-03-19 07:22:05 51°13.54 2°56.21 13.770823 0.010793 0.059068 0.499708
2004-03-19 07:22:09 51°13.54 2°56.208 13.754739 0.010689 0.058551 0.533418
2004-03-19 07:22:14 51°13.541 2°56.205 13.759392 0.010689 0.058552 0.567127
2004-03-19 07:22:19 51°13.542 2°56.202 13.759303 0.010689 0.058554 0.499708
2004-03-19 07:22:24 51°13.543 2°56.199 13.759303 0.010689 0.058554 0.499708
2004-03-19 07:22:29 51°13.544 2°56.196 13.757974 0.010689 0.058555 0.499708
2004-03-19 07:22:33 51°13.545 2°56.193 13.761563 0.010689 0.058557 0.533418
2004-03-19 07:22:39 51°13.546 2°56.19 13.759303 0.010689 0.058557 0.499708
2004-03-19 07:22:43 51°13.547 2°56.188 13.762848 0.010689 0.058558 0.533418
2004-03-19 07:22:49 51°13.548 2°56.184 13.761829 0.010689 0.05856 0.499708
2004-03-19 07:22:53 51°13.549 2°56.182 13.761829 0.010689 0.05856 0.499708
2004-03-19 07:22:59 51°13.551 2°56.178 13.760189 0.010689 0.058561 0.533418
2004-03-19 07:23:05 51°13.552 2°56.175 13.761563 0.010689 0.058563 0.533418
2004-03-19 07:23:09 51°13.552 2°56.172 13.76307 0.010689 0.058563 0.533418
2004-03-19 07:23:14 51°13.553 2°56.169 13.765905 0.010793 0.059084 0.533418
2004-03-19 07:23:19 51°13.554 2°56.166 13.76338 0.010689 0.058566 0.533418
2004-03-19 07:23:25 51°13.555 2°56.163 13.76338 0.010689 0.058566 0.533418
2004-03-19 07:23:29 51°13.556 2°56.161 13.760367 0.010689 0.058568 0.499708
2004-03-19 07:23:34 51°13.557 2°56.158 13.762139 0.010689 0.058568 0.499708
2004-03-19 07:23:39 51°13.558 2°56.155 13.760721 0.010689 0.05857 0.465999
2004-03-19 07:23:45 51°13.56 2°56.152 13.762183 0.010689 0.058572 0.465999
2004-03-19 07:23:49 51°13.56 2°56.15 13.763513 0.010689 0.058572 0.499708
2004-03-19 07:23:55 51°13.562 2°56.147 13.763513 0.010689 0.058572 0.499708
2004-03-19 07:23:59 51°13.563 2°56.144 13.76369 0.010689 0.058574 0.499708
2004-03-19 07:24:05 51°13.564 2°56.141 13.765772 0.010689 0.058575 0.499708
2004-03-19 07:24:09 51°13.564 2°56.139 13.766658 0.010689 0.058576 0.499708
2004-03-19 07:24:14 51°13.565 2°56.136 13.767722 0.010689 0.058578 0.533418
2004-03-19 07:24:19 51°13.566 2°56.134 13.769848 0.010689 0.058579 0.499708
2004-03-19 07:24:25 51°13.567 2°56.131 13.769848 0.010689 0.058579 0.499708
2004-03-19 07:24:29 51°13.568 2°56.129 13.770114 0.010689 0.05858 0.499708
2004-03-19 07:24:33 51°13.568 2°56.127 13.77264 0.010689 0.058581 0.533418
2004-03-19 07:24:39 51°13.569 2°56.124 13.770823 0.010689 0.058582 0.533418
2004-03-19 07:24:45 51°13.571 2°56.12 13.810154 0.010689 0.058583 0.533418
2004-03-19 07:24:49 51°13.571 2°56.117 13.762538 0.010689 0.058584 0.499708
2004-03-19 07:24:54 51°13.572 2°56.114 13.762538 0.010689 0.058584 0.499708
2004-03-19 07:24:59 51°13.573 2°56.111 13.765861 0.010689 0.058585 0.499708
2004-03-19 07:25:05 51°13.575 2°56.107 13.75948 0.010689 0.058585 0.465999
2004-03-19 07:25:09 51°13.575 2°56.104 13.77676 0.010689 0.058587 0.533418
2004-03-19 07:25:14 51°13.576 2°56.101 13.772507 0.010689 0.058589 0.499708
2004-03-19 07:25:19 51°13.577 2°56.098 13.772861 0.010689 0.058589 0.499708
2004-03-19 07:25:25 51°13.578 2°56.094 13.772861 0.010689 0.058589 0.499708
2004-03-19 07:25:29 51°13.579 2°56.091 13.768962 0.010689 0.058591 0.465999
2004-03-19 07:25:34 51°13.58 2°56.088 13.76781 0.010689 0.058592 0.499708
2004-03-19 07:25:39 51°13.581 2°56.085 13.77769 0.010689 0.058593 0.499708
2004-03-19 07:25:45 51°13.582 2°56.081 13.769937 0.010689 0.058595 0.465999
2004-03-19 07:25:49 51°13.583 2°56.079 13.769804 0.010689 0.058596 0.465999
2004-03-19 07:25:54 51°13.584 2°56.076 13.769804 0.010689 0.058596 0.465999
2004-03-19 07:25:59 51°13.585 2°56.073 13.77357 0.010689 0.058597 0.499708
2004-03-19 07:26:05 51°13.587 2°56.07 13.775253 0.010689 0.058598 0.499708
2004-03-19 07:26:09 51°13.587 2°56.067 13.775121 0.010689 0.058599 0.465999
2004-03-19 07:26:14 51°13.588 2°56.064 13.775874 0.010689 0.0586 0.533418
2004-03-19 07:26:19 51°13.589 2°56.062 13.776228 0.010689 0.058601 0.465999
2004-03-19 07:26:23 51°13.59 2°56.059 13.776228 0.010689 0.058601 0.465999
2004-03-19 07:26:29 51°13.591 2°56.056 13.777025 0.010689 0.058603 0.465999
2004-03-19 07:26:34 51°13.593 2°56.053 13.806213 0.010689 0.058604 0.465999
2004-03-19 07:26:39 51°13.594 2°56.049 13.777601 0.010689 0.058605 0.499708
2004-03-19 07:26:45 51°13.595 2°56.046 13.781145 0.010689 0.058605 0.499708
2004-03-19 07:26:49 51°13.596 2°56.043 13.784556 0.010689 0.058607 0.499708
2004-03-19 07:26:54 51°13.598 2°56.04 13.784556 0.010689 0.058607 0.499708
2004-03-19 07:26:59 51°13.599 2°56.037 13.785176 0.010689 0.058608 0.465999
2004-03-19 07:27:03 51°13.6 2°56.035 13.789251 0.010689 0.058609 0.499708
2004-03-19 07:27:09 51°13.601 2°56.031 13.788897 0.010689 0.058611 0.499708
2004-03-19 07:27:14 51°13.602 2°56.028 13.785973 0.010689 0.058611 0.499708
2004-03-19 07:27:19 51°13.604 2°56.025 13.789384 0.010689 0.058613 0.465999
2004-03-19 07:27:23 51°13.605 2°56.023 13.789384 0.010689 0.058613 0.465999
2004-03-19 07:27:29 51°13.606 2°56.02 13.787479 0.010689 0.058613 0.533418
2004-03-19 07:27:34 51°13.607 2°56.017 13.797312 0.010689 0.058615 0.465999
2004-03-19 07:27:39 51°13.608 2°56.014 13.79461 0.010689 0.058616 0.499708
2004-03-19 07:27:45 51°13.61 2°56.01 13.796205 0.010689 0.058616 0.465999
2004-03-19 07:27:49 51°13.612 2°56.007 13.801696 0.010689 0.058618 0.499708
2004-03-19 07:27:54 51°13.614 2°56.004 13.801696 0.010689 0.058618 0.499708
2004-03-19 07:28:01 51°13.616 2°55.999 13.800102 0.010689 0.058619 0.465999
2004-03-19 07:28:05 51°13.617 2°55.995 13.802626 0.010689 0.05862 0.499708
2004-03-19 07:28:09 51°13.618 2°55.992 13.8322 0.010689 0.05862 0.465999
2004-03-19 07:28:14 51°13.62 2°55.987 13.81737 0.010689 0.05862 0.465999
2004-03-19 07:28:19 51°13.622 2°55.982 13.819496 0.010689 0.058622 0.499708
2004-03-19 07:28:23 51°13.624 2°55.978 13.819496 0.010689 0.058622 0.499708
2004-03-19 07:28:29 51°13.627 2°55.971 13.810242 0.010689 0.058623 0.499708
2004-03-19 07:28:33 51°13.629 2°55.967 13.806434 0.010689 0.058624 0.499708
2004-03-19 07:28:39 51°13.632 2°55.959 13.805991 0.010689 0.058626 0.499708
2004-03-19 07:28:43 51°13.634 2°55.954 13.805061 0.010689 0.058627 0.465999
2004-03-19 07:28:49 51°13.638 2°55.946 13.80701 0.010689 0.058628 0.465999
2004-03-19 07:28:54 51°13.641 2°55.939 13.80701 0.010689 0.058628 0.465999
2004-03-19 07:28:59 51°13.644 2°55.931 13.805548 0.010689 0.058628 0.465999
2004-03-19 07:29:04 51°13.647 2°55.924 13.80112 0.010689 0.05863 0.465999
2004-03-19 07:29:09 51°13.651 2°55.916 13.787435 0.010689 0.058631 0.499708
2004-03-19 07:29:13 51°13.653 2°55.91 13.771975 0.010689 0.058631 0.465999
2004-03-19 07:29:19 51°13.657 2°55.9 13.78903 0.010689 0.058633 0.465999
2004-03-19 07:29:23 51°13.66 2°55.893 13.78903 0.010689 0.058633 0.465999
2004-03-19 07:29:29 51°13.664 2°55.882 13.803821 0.010689 0.058635 0.465999
2004-03-19 07:29:34 51°13.668 2°55.873 13.801386 0.010689 0.058636 0.465999
2004-03-19 07:29:39 51°13.673 2°55.863 13.78553 0.010689 0.058637 0.499708
2004-03-19 07:29:44 51°13.678 2°55.853 13.776095 0.010689 0.058639 0.465999
2004-03-19 07:29:49 51°13.682 2°55.842 13.733154 0.010689 0.058639 0.465999
2004-03-19 07:29:54 51°13.687 2°55.832 13.733154 0.010689 0.058639 0.465999
2004-03-19 07:29:59 51°13.692 2°55.821 13.765329 0.010689 0.058641 0.432289
2004-03-19 07:30:05 51°13.699 2°55.807 13.775652 0.010689 0.058642 0.499708
2004-03-19 07:30:09 51°13.703 2°55.798 13.789473 0.010689 0.058644 0.465999
2004-03-19 07:30:14 51°13.709 2°55.787 13.788808 0.010689 0.058645 0.465999
2004-03-19 07:30:19 51°13.715 2°55.775 13.75239 0.010689 0.058647 0.465999
2004-03-19 07:30:25 51°13.722 2°55.761 13.75239 0.010689 0.058647 0.465999
2004-03-19 07:30:29 51°13.727 2°55.751 13.716352 0.010689 0.058648 0.465999
2004-03-19 07:30:34 51°13.733 2°55.739 13.687347 0.010689 0.058649 0.465999
2004-03-19 07:30:39 51°13.74 2°55.727 13.7046 0.010689 0.05865 0.432289
2004-03-19 07:30:45 51°13.749 2°55.713 13.67883 0.010689 0.058651 0.465999
2004-03-19 07:30:49 51°13.756 2°55.704 13.67883 0.010689 0.058651 0.465999
2004-03-19 07:30:54 51°13.764 2°55.694 13.641553 0.010689 0.058652 0.465999
2004-03-19 07:30:59 51°13.773 2°55.683 13.644394 0.010689 0.058653 0.465999
2004-03-19 07:31:05 51°13.784 2°55.671 13.62153 0.010689 0.058654 0.432289
2004-03-19 07:31:09 51°13.791 2°55.664 13.637158 0.010689 0.058656 0.465999
2004-03-19 07:31:14 51°13.8 2°55.654 13.686903 0.010689 0.058657 0.499708
2004-03-19 07:31:19 51°13.809 2°55.646 13.682645 0.010689 0.058659 0.465999
2004-03-19 07:31:25 51°13.821 2°55.636 13.682645 0.010689 0.058659 0.465999
2004-03-19 07:31:29 51°13.829 2°55.63 13.673195 0.010689 0.058661 0.465999
2004-03-19 07:31:34 51°13.839 2°55.622 13.718524 0.010689 0.058662 0.465999
2004-03-19 07:31:39 51°13.849 2°55.614 13.705975 0.010689 0.058664 0.465999
2004-03-19 07:31:43 51°13.857 2°55.608 13.713957 0.010689 0.058665 0.432289
2004-03-19 07:31:49 51°13.868 2°55.599 13.714667 0.010689 0.058667 0.465999
2004-03-19 07:31:54 51°13.878 2°55.592 13.714667 0.010689 0.058667 0.465999
2004-03-19 07:31:59 51°13.888 2°55.585 13.74951 0.010689 0.058668 0.465999
2004-03-19 07:32:03 51°13.896 2°55.579 13.772817 0.010689 0.05867 0.465999
2004-03-19 07:32:09 51°13.908 2°55.571 13.748269 0.010689 0.058672 0.465999
2004-03-19 07:32:14 51°13.918 2°55.564 13.756379 0.010689 0.058674 0.465999
2004-03-19 07:32:19 51°13.928 2°55.557 13.81281 0.010689 0.058676 0.465999
2004-03-19 07:32:25 51°13.94 2°55.549 13.81281 0.010689 0.058676 0.465999
2004-03-19 07:32:29 51°13.948 2°55.543 13.783493 0.010689 0.058676 0.432289
2004-03-19 07:32:33 51°13.956 2°55.538 13.917177 0.010689 0.058678 0.465999
2004-03-19 07:32:39 51°13.968 2°55.53 9.829834 0.010689 0.058702 0.465999
2004-03-19 07:32:43 51°13.976 2°55.524 8.710815 0.010689 0.058783 17.219571
2004-03-19 07:32:49 51°13.988 2°55.515 8.143408 3.469542 25.735762 19.747777
2004-03-19 07:32:54 51°13.998 2°55.508 8.143408 3.469542 25.735762 19.747777
2004-03-19 07:32:59 51°14.008 2°55.5 7.904681 3.645111 29.487933 14.354272
2004-03-19 07:33:03 51°14.017 2°55.494 7.712213 3.138164 26.793721 14.118306
2004-03-19 07:33:09 51°14.029 2°55.486 7.672114 2.989003 26.570232 17.253281
2004-03-19 07:33:13 51°14.038 2°55.48 7.537245 2.843978 25.804483 17.354409
2004-03-19 07:33:19 51°14.051 2°55.47 7.565693 2.92502 27.052922 16.343127
2004-03-19 07:33:25 51°14.064 2°55.46 7.565693 2.92502 27.052922 16.343127
2004-03-19 07:33:30 51°14.076 2°55.451 7.555172 2.899974 27.028551 16.140871
2004-03-19 07:33:35 51°14.088 2°55.442 7.499083 2.856616 26.731884 16.107161
2004-03-19 07:33:39 51°14.098 2°55.435 7.476117 2.819575 26.462833 15.432973
2004-03-19 07:33:43 51°14.108 2°55.427 7.484164 2.791481 26.223916 15.432973
2004-03-19 07:33:49 51°14.124 2°55.416 7.46568 2.768858 26.037374 15.500392
2004-03-19 07:33:53 51°14.134 2°55.408 7.46568 2.768858 26.037374 15.500392
2004-03-19 07:33:59 51°14.15 2°55.396 7.44597 2.750446 25.885945 16.039742
2004-03-19 07:34:05 51°14.165 2°55.383 7.418299 2.726458 25.665333 15.298136
2004-03-19 07:34:09 51°14.175 2°55.373 7.396622 2.705732 25.471585 15.702648
2004-03-19 07:34:15 51°14.189 2°55.358 7.380067 2.628413 24.68544 15.399264
2004-03-19 07:34:19 51°14.199 2°55.347 7.384169 2.641562 24.849931 15.803777
2004-03-19 07:34:25 51°14.213 2°55.331 7.384169 2.641562 24.849931 15.803777
2004-03-19 07:34:29 51°14.222 2°55.319 7.412588 2.702366 25.497484 15.567811
2004-03-19 07:34:35 51°14.236 2°55.301 7.415712 2.708258 25.583957 15.129589
2004-03-19 07:34:39 51°14.245 2°55.288 7.442848 2.714781 25.664778 15.60152
2004-03-19 07:34:45 51°14.258 2°55.269 7.494208 2.688375 25.398276 15.534101
2004-03-19 07:34:49 51°14.266 2°55.256 7.494208 2.688375 25.398276 15.534101
2004-03-19 07:34:55 51°14.279 2°55.235 7.526963 2.684798 25.358047 15.770067
2004-03-19 07:34:59 51°14.287 2°55.221 7.541094 2.65671 25.062838 16.511674
2004-03-19 07:35:05 51°14.298 2°55.199 7.535881 2.60906 24.557314 15.736358
2004-03-19 07:35:10 51°14.308 2°55.181 7.545868 2.561308 24.046032 16.949896
2004-03-19 07:35:15 51°14.318 2°55.162 7.556731 2.512195 23.519298 17.219571
2004-03-19 07:35:19 51°14.325 2°55.147 7.573095 2.485485 23.232145 16.781349
2004-03-19 07:35:25 51°14.337 2°55.123 7.573095 2.485485 23.232145 16.781349
2004-03-19 07:35:30 51°14.346 2°55.104 7.572608 2.471605 23.08595 17.522956
2004-03-19 07:35:35 51°14.356 2°55.084 7.581226 2.423869 22.594139 17.624084
2004-03-19 07:35:39 51°14.364 2°55.068 7.539486 2.444267 22.797227 17.590375
2004-03-19 07:35:45 51°14.376 2°55.043 7.520043 2.410096 22.442075 17.590375
2004-03-19 07:35:49 51°14.384 2°55.026 7.501911 2.418507 22.525783 17.758922
2004-03-19 07:35:54 51°14.392 2°55.004 7.501911 2.418507 22.525783 17.758922
2004-03-19 07:35:59 51°14.4 2°54.98 7.482652 2.429967 22.642842 15.399264
2004-03-19 07:36:05 51°14.407 2°54.95 7.454411 2.461616 22.980297 14.994751
2004-03-19 07:36:09 51°14.411 2°54.93 7.444067 2.464455 23.022679 15.197007
2004-03-19 07:36:14 51°14.416 2°54.903 7.414931 2.504203 23.442844 14.961042
2004-03-19 07:36:19 51°14.419 2°54.876 7.365608 2.518821 23.606738 14.725076
2004-03-19 07:36:25 51°14.423 2°54.843 7.365608 2.518821 23.606738 14.725076
2004-03-19 07:36:29 51°14.424 2°54.82 7.316491 2.558679 24.031686 14.623947
2004-03-19 07:36:34 51°14.425 2°54.791 7.298838 2.574035 24.207664 14.623947
2004-03-19 07:36:39 51°14.426 2°54.761 7.251089 2.6119 24.618209 14.758785
2004-03-19 07:36:43 51°14.427 2°54.737 7.238559 2.668388 25.229727 14.657657
2004-03-19 07:36:49 51°14.426 2°54.702 7.17886 2.718885 25.789137 14.387982
2004-03-19 07:36:53 51°14.426 2°54.677 7.17886 2.718885 25.789137 14.387982
2004-03-19 07:36:59 51°14.423 2°54.641 7.166659 2.789275 26.549507 14.421691
2004-03-19 07:37:03 51°14.42 2°54.617 7.125971 2.843363 27.142266 14.253144
2004-03-19 07:37:09 51°14.414 2°54.582 7.11631 2.874619 27.494708 14.556529
2004-03-19 07:37:14 51°14.409 2°54.553 7.098455 2.912192 27.923192 14.48911
2004-03-19 07:37:19 51°14.402 2°54.525 7.091145 2.967346 28.530192 14.354272
2004-03-19 07:37:23 51°14.396 2°54.502 7.091145 2.967346 28.530192 14.354272
2004-03-19 07:37:29 51°14.387 2°54.468 7.082214 3.012505 29.037566 14.48911
2004-03-19 07:37:34 51°14.379 2°54.44 7.05954 3.032822 29.274688 14.4554
2004-03-19 07:37:39 51°14.372 2°54.412 7.041571 3.056088 29.535182 14.219435
2004-03-19 07:37:44 51°14.363 2°54.384 7.035187 3.077039 29.777237 14.185725
2004-03-19 07:37:49 51°14.355 2°54.357 7.014264 3.092726 29.952426 14.084597
2004-03-19 07:37:54 51°14.345 2°54.331 7.014264 3.092726 29.952426 14.084597
2004-03-19 07:37:59 51°14.335 2°54.305 7.004684 3.104518 30.091979 13.814922
2004-03-19 07:38:05 51°14.322 2°54.274 6.992548 3.094622 30.002838 13.848631
2004-03-19 07:38:09 51°14.313 2°54.254 7.007288 3.133052 30.427813 14.050888
2004-03-19 07:38:14 51°14.302 2°54.229 6.987437 3.145056 30.568794 13.680084
2004-03-19 07:38:19 51°14.291 2°54.203 6.973823 3.165799 30.80556 13.781212
2004-03-19 07:38:25 51°14.277 2°54.173 6.973823 3.165799 30.80556 13.781212
2004-03-19 07:38:29 51°14.269 2°54.152 6.986159 3.172433 30.889898 13.91605
2004-03-19 07:38:34 51°14.258 2°54.127 6.982277 3.179067 30.964438 13.882341
2004-03-19 07:38:39 51°14.248 2°54.1 6.968071 3.191809 31.106423 14.118306
2004-03-19 07:38:43 51°14.239 2°54.079 6.972889 3.192651 31.12775 13.713794
2004-03-19 07:38:49 51°14.227 2°54.047 6.956764 3.188755 31.087994 13.91605
2004-03-19 07:38:53 51°14.219 2°54.026 6.956764 3.188755 31.087994 13.91605
2004-03-19 07:38:59 51°14.207 2°53.994 6.951699 3.078198 29.897952 14.050888
2004-03-19 07:39:03 51°14.199 2°53.973 6.932077 3.208342 31.305626 13.34299
2004-03-19 07:39:09 51°14.186 2°53.941 6.93429 3.208868 31.314395 13.612665
2004-03-19 07:39:14 51°14.176 2°53.915 6.9246 3.220557 31.446148 13.511537
2004-03-19 07:39:19 51°14.165 2°53.889 6.912055 3.232247 31.583458 13.612665
2004-03-19 07:39:25 51°14.152 2°53.857 6.912055 3.232247 31.583458 13.612665
2004-03-19 07:39:29 51°14.144 2°53.836 6.925535 3.227297 31.53921 13.275571
2004-03-19 07:39:34 51°14.133 2°53.81 6.921501 3.239619 31.681188 13.511537
2004-03-19 07:39:39 51°14.123 2°53.783 6.923961 3.246675 31.761546 13.208153
2004-03-19 07:39:45 51°14.11 2°53.751 6.930946 3.254995 31.859577 13.511537
2004-03-19 07:39:49 51°14.103 2°53.729 6.927306 3.247201 31.777427 13.848631
2004-03-19 07:39:54 51°14.093 2°53.702 6.927306 3.247201 31.777427 13.848631
2004-03-19 07:39:59 51°14.083 2°53.675 6.920271 3.25847 31.899626 13.275571
2004-03-19 07:40:05 51°14.071 2°53.642 6.934635 3.207184 31.34167 13.241862
2004-03-19 07:40:09 51°14.063 2°53.621 6.92278 3.248781 31.792987 13.612665
2004-03-19 07:40:14 51°14.052 2°53.594 6.921648 3.248044 31.786561 13.275571
2004-03-19 07:40:19 51°14.042 2°53.567 6.918303 3.230878 31.603642 13.241862
2004-03-19 07:40:25 51°14.029 2°53.535 6.918303 3.230878 31.603642 13.241862
2004-03-19 07:40:29 51°14.02 2°53.514 6.929716 3.221927 31.50513 13.275571
2004-03-19 07:40:33 51°14.012 2°53.492 6.929322 3.25331 31.848366 13.073315
2004-03-19 07:40:39 51°14 2°53.46 6.92947 3.254152 31.853579 12.736221
2004-03-19 07:40:43 51°13.992 2°53.438 6.936208 3.246148 31.773056 13.713794
2004-03-19 07:40:49 51°13.98 2°53.405 6.932913 3.258786 31.90777 13.174443
2004-03-19 07:40:54 51°13.971 2°53.376 6.932913 3.258786 31.90777 13.174443
2004-03-19 07:40:59 51°13.962 2°53.348 6.936208 3.26342 31.956473 13.073315
2004-03-19 07:41:05 51°13.952 2°53.314 6.928831 3.255732 31.871497 13.140734
2004-03-19 07:41:09 51°13.945 2°53.291 6.936553 3.247517 31.782419 12.972187
2004-03-19 07:41:13 51°13.938 2°53.268 6.925436 3.25352 31.846726 12.567674
2004-03-19 07:41:19 51°13.927 2°53.234 6.927945 3.260787 31.923973 12.871059
2004-03-19 07:41:23 51°13.92 2°53.212 6.927945 3.260787 31.923973 12.871059
2004-03-19 07:41:29 51°13.908 2°53.178 6.92706 3.245832 31.76415 12.466546
2004-03-19 07:41:34 51°13.899 2°53.15 6.929372 3.255942 31.872997 12.702512
2004-03-19 07:41:39 51°13.889 2°53.122 6.93129 3.251625 31.829306 12.837349
2004-03-19 07:41:45 51°13.878 2°53.088 6.931339 3.254889 31.868642 12.76993
2004-03-19 07:41:49 51°13.87 2°53.066 6.931339 3.254889 31.868642 12.76993
2004-03-19 07:41:54 51°13.86 2°53.038 6.928142 3.260576 31.931129 12.904768
2004-03-19 07:41:59 51°13.851 2°53.01 6.934782 3.250572 31.821806 12.500255
2004-03-19 07:42:05 51°13.84 2°52.976 6.935717 3.260576 31.928768 12.466546
2004-03-19 07:42:09 51°13.833 2°52.953 6.93852 3.269212 32.0217 12.365418
2004-03-19 07:42:13 51°13.825 2°52.931 6.937831 3.249834 31.812243 12.129452
2004-03-19 07:42:19 51°13.814 2°52.897 6.938864 3.218557 31.471741 12.365418
2004-03-19 07:42:23 51°13.806 2°52.875 6.938864 3.218557 31.471741 12.365418
2004-03-19 07:42:29 51°13.795 2°52.841 6.952289 3.26837 32.010977 12.500255
2004-03-19 07:42:33 51°13.788 2°52.818 6.942307 3.260471 31.924478 12.23058
2004-03-19 07:42:39 51°13.776 2°52.784 6.94393 3.255311 31.868499 12.601383
2004-03-19 07:42:45 51°13.764 2°52.751 6.942651 3.282166 32.15918 12.095742
2004-03-19 07:42:49 51°13.757 2°52.728 6.944422 3.265737 31.976887 12.196871
2004-03-19 07:42:54 51°13.747 2°52.7 6.944422 3.265737 31.976887 12.196871
2004-03-19 07:42:59 51°13.737 2°52.672 6.948356 3.268896 32.010382 12.196871
2004-03-19 07:43:05 51°13.726 2°52.638 6.948011 3.281113 32.143783 11.859777
2004-03-19 07:43:09 51°13.718 2°52.615 6.95583 3.289012 32.230359 11.994614
2004-03-19 07:43:14 51°13.708 2°52.587 6.950175 3.285221 32.187592 11.994614
2004-03-19 07:43:19 51°13.699 2°52.559 6.95224 3.290065 32.238622 12.062033
2004-03-19 07:43:25 51°13.688 2°52.525 6.95224 3.290065 32.238622 12.062033
2004-03-19 07:43:29 51°13.68 2°52.502 6.951994 3.279639 32.124607 11.590101
2004-03-19 07:43:34 51°13.671 2°52.474 6.955977 3.28343 32.162602 11.893486
2004-03-19 07:43:39 51°13.661 2°52.446 6.959271 3.289855 32.233157 11.455264
2004-03-19 07:43:45 51°13.65 2°52.412 6.9576 3.30302 32.376978 11.387845
2004-03-19 07:43:49 51°13.642 2°52.389 6.957895 3.291329 32.249171 11.354136
2004-03-19 07:43:54 51°13.633 2°52.361 6.957895 3.291329 32.249171 11.354136
2004-03-19 07:43:59 51°13.623 2°52.332 6.959025 3.264578 31.958018 11.11817
2004-03-19 07:44:03 51°13.615 2°52.309 6.960894 3.298385 32.322641 11.11817
2004-03-19 07:44:09 51°13.604 2°52.275 6.970628 3.299965 32.339804 11.219298
2004-03-19 07:44:13 51°13.596 2°52.253 6.966793 3.285326 32.180807 11.219298
2004-03-19 07:44:19 51°13.585 2°52.218 6.967088 3.312709 32.475903 11.050751
2004-03-19 07:44:24 51°13.575 2°52.19 6.967088 3.312709 32.475903 11.050751
2004-03-19 07:44:29 51°13.566 2°52.162 6.966302 3.302177 32.359052 10.949623
2004-03-19 07:44:33 51°13.558 2°52.139 6.967334 3.292382 32.251076 10.949623
2004-03-19 07:44:39 51°13.546 2°52.105 6.967137 3.306706 32.405066 10.949623
2004-03-19 07:44:44 51°13.537 2°52.077 6.962811 3.303862 32.374171 11.017042
2004-03-19 07:44:49 51°13.527 2°52.049 6.966498 3.292382 32.249488 10.646238
2004-03-19 07:44:53 51°13.519 2°52.026 6.966498 3.292382 32.249488 10.646238
2004-03-19 07:44:59 51°13.507 2°51.992 6.965957 3.282903 32.14659 10.781076
2004-03-19 07:45:05 51°13.496 2°51.958 6.970087 3.303336 32.369247 10.848494
2004-03-19 07:45:09 51°13.488 2°51.936 6.962123 3.304705 32.38492 10.578819
2004-03-19 07:45:14 51°13.479 2°51.907 6.967039 3.300913 32.343729 10.747366
2004-03-19 07:45:19 51°13.469 2°51.879 6.962369 3.296911 32.301848 10.612529
2004-03-19 07:45:25 51°13.457 2°51.846 6.962369 3.296911 32.301848 10.612529
2004-03-19 07:45:29 51°13.449 2°51.823 6.970136 3.308075 32.422339 10.781076
2004-03-19 07:45:34 51°13.44 2°51.795 6.971365 3.301124 32.348407 10.612529
2004-03-19 07:45:39 51°13.43 2°51.767 6.969497 3.292803 32.258829 10.646238
2004-03-19 07:45:45 51°13.419 2°51.733 6.970185 3.232984 31.609328 10.848494
2004-03-19 07:45:49 51°13.411 2°51.71 6.966597 3.309655 32.438708 10.646238
2004-03-19 07:45:54 51°13.401 2°51.682 6.966597 3.309655 32.438708 10.646238
2004-03-19 07:45:59 51°13.392 2°51.654 6.966941 3.307232 32.40999 10.578819
2004-03-19 07:46:03 51°13.384 2°51.632 6.965417 3.301018 32.345669 10.612529
2004-03-19 07:46:09 51°13.372 2°51.598 6.963696 3.307232 32.412385 10.612529
2004-03-19 07:46:14 51°13.363 2°51.57 6.964139 3.30797 32.422792 10.882204
2004-03-19 07:46:19 51°13.353 2°51.542 6.965368 3.304283 32.381938 10.983332
2004-03-19 07:46:25 51°13.341 2°51.508 6.965368 3.304283 32.381938 10.983332
2004-03-19 07:46:29 51°13.334 2°51.486 6.9605 3.316606 32.516665 10.679947
2004-03-19 07:46:34 51°13.324 2°51.458 6.967432 3.307654 32.419358 10.949623
2004-03-19 07:46:39 51°13.314 2°51.43 6.968121 3.300703 32.345424 10.747366
2004-03-19 07:46:43 51°13.307 2°51.407 6.96871 3.318397 32.538536 10.713657
2004-03-19 07:46:49 51°13.296 2°51.373 6.970628 3.309339 32.440069 10.949623
2004-03-19 07:46:53 51°13.288 2°51.35 6.970628 3.309339 32.440069 10.949623
2004-03-19 07:46:59 51°13.277 2°51.316 6.97397 3.308602 32.431257 10.882204
2004-03-19 07:47:04 51°13.267 2°51.288 6.979328 3.305442 32.395324 11.050751
2004-03-19 07:47:09 51°13.258 2°51.26 6.979819 3.3145 32.493766 10.882204
2004-03-19 07:47:13 51°13.25 2°51.237 6.979426 3.30302 32.367409 10.949623
2004-03-19 07:47:19 51°13.239 2°51.202 6.97977 3.309023 32.431042 10.882204
2004-03-19 07:47:23 51°13.232 2°51.179 6.97977 3.309023 32.431042 10.882204
2004-03-19 07:47:29 51°13.221 2°51.145 6.985717 3.259312 31.888338 11.185589
2004-03-19 07:47:34 51°13.211 2°51.117 6.984193 3.309023 32.427049 10.983332
2004-03-19 07:47:39 51°13.202 2°51.088 6.983849 3.311024 32.447195 11.11817
2004-03-19 07:47:43 51°13.194 2°51.065 6.984243 3.311656 32.454061 11.387845
2004-03-19 07:47:49 51°13.183 2°51.031 6.9867 3.315764 32.495499 11.69123
2004-03-19 07:47:54 51°13.173 2°51.003 6.9867 3.315764 32.495499 11.69123
2004-03-19 07:47:59 51°13.164 2°50.974 6.987339 3.31471 32.484053 11.08446
2004-03-19 07:48:05 51°13.152 2°50.94 6.990287 3.301334 32.338748 11.151879
2004-03-19 07:48:09 51°13.145 2°50.918 6.992695 3.282693 32.135599 11.08446
2004-03-19 07:48:14 51°13.135 2°50.889 6.991614 3.310392 32.434738 10.983332
2004-03-19 07:48:19 51°13.126 2°50.861 6.993875 3.316712 32.503399 10.747366
2004-03-19 07:48:25 51°13.115 2°50.827 6.993875 3.316712 32.503399 10.747366
2004-03-19 07:48:29 51°13.107 2°50.804 6.994317 3.325454 32.596007 11.151879
2004-03-19 07:48:34 51°13.098 2°50.776 6.995005 3.31471 32.479255 10.915913
2004-03-19 07:48:39 51°13.088 2°50.747 6.994857 3.31787 32.511187 11.11817
2004-03-19 07:48:43 51°13.081 2°50.724 6.995103 3.308286 32.407068 11.050751
2004-03-19 07:48:49 51°13.069 2°50.691 6.997806 3.308391 32.406616 11.11817
2004-03-19 07:48:54 51°13.06 2°50.662 6.997806 3.308391 32.406616 11.11817
2004-03-19 07:48:59 51°13.05 2°50.634 6.999918 3.311024 32.434416 11.11817
2004-03-19 07:49:05 51°13.039 2°50.6 7.002965 3.312604 32.451576 10.814785
2004-03-19 07:49:09 51°13.032 2°50.577 7.001835 3.313657 32.462218 10.713657
2004-03-19 07:49:13 51°13.024 2°50.554 7.010825 3.315132 32.477436 11.08446
2004-03-19 07:49:19 51°13.013 2°50.52 7.006109 3.314816 32.471606 10.915913
2004-03-19 07:49:25 51°13.002 2°50.486 7.006109 3.314816 32.471606 10.915913
2004-03-19 07:49:29 51°12.994 2°50.463 7.008369 3.314184 32.463943 11.11817
2004-03-19 07:49:35 51°12.983 2°50.429 7.009057 3.315974 32.481793 10.949623
2004-03-19 07:49:39 51°12.975 2°50.407 7.011808 3.314078 32.459604 11.151879
2004-03-19 07:49:45 51°12.964 2°50.373 7.012152 3.320187 32.524356 11.08446
2004-03-19 07:49:49 51°12.957 2°50.35 7.015394 3.31945 32.514747 11.219298
2004-03-19 07:49:54 51°12.948 2°50.321 7.015394 3.31945 32.514747 11.219298
2004-03-19 07:49:59 51°12.938 2°50.293 7.013183 3.315447 32.470479 11.050751
2004-03-19 07:50:05 51°12.927 2°50.259 7.015541 3.320503 32.524587 11.050751
2004-03-19 07:50:09 51°12.919 2°50.236 7.015738 3.312709 32.438349 10.949623
2004-03-19 07:50:13 51°12.912 2°50.213 7.017359 3.324611 32.566804 10.983332
2004-03-19 07:50:19 51°12.901 2°50.179 7.021534 3.301439 32.315228 11.050751
2004-03-19 07:50:25 51°12.89 2°50.145 7.021534 3.301439 32.315228 11.050751
2004-03-19 07:50:29 51°12.883 2°50.122 7.023793 3.319028 32.503773 11.050751
2004-03-19 07:50:34 51°12.873 2°50.094 7.030767 3.324716 32.566346 10.983332
2004-03-19 07:50:39 51°12.864 2°50.066 7.034205 3.323347 32.549071 11.050751
2004-03-19 07:50:43 51°12.856 2°50.044 7.036513 3.329666 32.616916 11.11817
2004-03-19 07:50:49 51°12.845 2°50.01 7.038821 3.325769 32.571377 10.814785
2004-03-19 07:50:53 51°12.837 2°49.987 7.038821 3.325769 32.571377 10.814785
2004-03-19 07:50:59 51°12.826 2°49.953 7.040392 3.307337 32.368091 11.08446
2004-03-19 07:51:04 51°12.816 2°49.925 7.04491 3.335881 32.67399 11.08446
2004-03-19 07:51:09 51°12.807 2°49.897 7.048297 3.31471 32.440125 10.713657
2004-03-19 07:51:13 51°12.799 2°49.874 7.052912 3.33567 32.665275 11.050751
2004-03-19 07:51:19 51°12.788 2°49.84 7.054827 3.328929 32.59207 10.983332
2004-03-19 07:51:23 51°12.78 2°49.818 7.054827 3.328929 32.59207 10.983332
2004-03-19 07:51:29 51°12.769 2°49.783 7.053992 3.338408 32.691002 10.848494
2004-03-19 07:51:34 51°12.76 2°49.755 7.057134 3.339356 32.698083 11.08446
2004-03-19 07:51:39 51°12.751 2°49.727 7.056054 3.319133 32.476157 10.54511
2004-03-19 07:51:43 51°12.743 2°49.704 7.056938 3.333142 32.625789 10.949623
2004-03-19 07:51:49 51°12.732 2°49.67 7.05738 3.345887 32.763382 10.882204
2004-03-19 07:51:54 51°12.723 2°49.642 7.05738 3.345887 32.763382 10.882204
2004-03-19 07:51:59 51°12.714 2°49.613 7.060914 3.33409 32.632872 11.017042
2004-03-19 07:52:05 51°12.703 2°49.579 7.064006 3.348941 32.79334 11.151879
2004-03-19 07:52:09 51°12.695 2°49.556 7.069995 3.339145 32.686958 11.08446
2004-03-19 07:52:14 51°12.686 2°49.528 7.074215 3.327349 32.558108 11.050751
2004-03-19 07:52:19 51°12.677 2°49.5 7.079417 3.338513 32.677687 10.882204
2004-03-19 07:52:25 51°12.666 2°49.466 7.079417 3.338513 32.677687 10.882204
2004-03-19 07:52:29 51°12.659 2°49.443 7.080742 3.344307 32.738175 10.949623
2004-03-19 07:52:34 51°12.65 2°49.414 7.08511 3.345149 32.742499 10.983332
2004-03-19 07:52:39 51°12.641 2°49.386 7.088495 3.338829 32.66988 10.814785
2004-03-19 07:52:43 51°12.633 2°49.364 7.092715 3.339461 32.672726 10.949623
2004-03-19 07:52:49 51°12.622 2°49.33 7.095855 3.350205 32.786123 10.915913
2004-03-19 07:52:54 51°12.613 2°49.302 7.095855 3.350205 32.786123 10.915913
2004-03-19 07:52:59 51°12.605 2°49.273 7.099534 3.350205 32.784513 10.342853
2004-03-19 07:53:05 51°12.594 2°49.239 7.102625 3.356314 32.847615 10.342853
2004-03-19 07:53:09 51°12.586 2°49.217 7.10233 3.33272 32.586781 10.54511
2004-03-19 07:53:13 51°12.579 2°49.194 7.104832 3.319238 32.439035 10.275435
2004-03-19 07:53:19 51°12.568 2°49.161 7.106255 3.344727 32.71221 10.5114
2004-03-19 07:53:25 51°12.557 2°49.127 7.106255 3.344727 32.71221 10.5114
2004-03-19 07:53:29 51°12.549 2°49.104 7.106304 3.339145 32.649253 10.612529
2004-03-19 07:53:35 51°12.537 2°49.07 7.111356 3.356735 32.837677 10.073178
2004-03-19 07:53:39 51°12.53 2°49.048 7.113073 3.358631 32.856642 10.612529
2004-03-19 07:53:45 51°12.519 2°49.015 7.113759 3.33114 32.556862 10.578819
2004-03-19 07:53:49 51°12.512 2°48.993 7.114348 3.324715 32.486435 10.376563
2004-03-19 07:53:55 51°12.501 2°48.96 7.114348 3.324715 32.486435 10.376563
2004-03-19 07:53:59 51°12.494 2°48.937 7.115476 3.350836 32.767236 10.140597
2004-03-19 07:54:05 51°12.483 2°48.903 7.114054 3.364003 32.907686 10.275435
2004-03-19 07:54:09 51°12.475 2°48.88 7.118909 3.355471 32.814296 10.241725
2004-03-19 07:54:14 51°12.466 2°48.852 7.115034 3.364319 32.907078 10.376563
2004-03-19 07:54:19 51°12.457 2°48.824 7.116996 3.36474 32.911651 10.241725
2004-03-19 07:54:25 51°12.445 2°48.79 7.116996 3.36474 32.911651 10.241725
2004-03-19 07:54:29 51°12.437 2°48.767 7.116212 3.364635 32.909701 10.174306
2004-03-19 07:54:34 51°12.427 2°48.738 7.115966 3.368111 32.94581 10.241725
2004-03-19 07:54:39 51°12.417 2°48.709 7.116702 3.374115 33.012604 9.97205
2004-03-19 07:54:43 51°12.41 2°48.686 7.116015 3.369902 32.966055 10.342853
2004-03-19 07:54:49 51°12.398 2°48.651 7.115623 3.371271 32.980919 10.443982
2004-03-19 07:54:55 51°12.387 2°48.617 7.115623 3.371271 32.980919 10.443982
2004-03-19 07:54:59 51°12.38 2°48.594 7.112876 3.353048 32.783993 10.275435
2004-03-19 07:55:05 51°12.368 2°48.56 7.114004 3.36453 32.908557 10.443982
2004-03-19 07:55:09 51°12.361 2°48.537 7.11013 3.346834 32.715794 10.376563
2004-03-19 07:55:13 51°12.353 2°48.514 7.11425 3.351047 32.762287 9.97205
2004-03-19 07:55:19 51°12.342 2°48.479 7.116702 3.373167 33.003931 10.005759
2004-03-19 07:55:25 51°12.331 2°48.445 7.116702 3.373167 33.003931 10.005759
2004-03-19 07:55:29 51°12.324 2°48.422 7.111405 3.376538 33.04053 9.634956
2004-03-19 07:55:34 51°12.315 2°48.394 7.113612 3.380014 33.079091 9.803503
2004-03-19 07:55:39 51°12.306 2°48.366 7.112729 3.376327 33.038242 9.668665
2004-03-19 07:55:43 51°12.298 2°48.343 7.112288 3.373378 33.006218 9.702375
2004-03-19 07:55:49 51°12.287 2°48.309 7.115868 3.383068 33.113083 9.668665
2004-03-19 07:55:53 51°12.279 2°48.287 7.115868 3.383068 33.113083 9.668665
2004-03-19 07:55:59 51°12.268 2°48.253 7.114201 3.369375 32.964381 9.904631
2004-03-19 07:56:05 51°12.257 2°48.219 7.113416 3.373588 33.010125 9.769794
2004-03-19 07:56:09 51°12.25 2°48.196 7.11371 3.393286 33.2241 9.668665
2004-03-19 07:56:13 51°12.243 2°48.174 7.110326 3.376222 33.03953 9.668665
2004-03-19 07:56:19 51°12.231 2°48.14 7.110326 3.382647 33.109318 9.769794
2004-03-19 07:56:23 51°12.224 2°48.117 7.110326 3.382647 33.109318 9.769794
2004-03-19 07:56:29 51°12.213 2°48.084 7.109002 3.367058 32.939226 9.39899
2004-03-19 07:56:34 51°12.204 2°48.055 7.112288 3.374747 33.022706 9.97205
2004-03-19 07:56:39 51°12.195 2°48.027 7.109835 3.370428 32.977434 9.533828
2004-03-19 07:56:45 51°12.184 2°47.994 7.10807 3.383068 33.11552 9.769794
2004-03-19 07:56:49 51°12.177 2°47.971 7.107824 3.370218 32.977575 9.601247
2004-03-19 07:56:54 51°12.167 2°47.943 7.107824 3.370218 32.977575 9.601247
2004-03-19 07:56:59 51°12.158 2°47.915 7.111013 3.370955 32.98558 9.500118
2004-03-19 07:57:05 51°12.147 2°47.882 7.107873 3.382226 33.10799 9.803503
2004-03-19 07:57:09 51°12.14 2°47.859 7.10753 3.385491 33.143467 9.533828
2004-03-19 07:57:14 51°12.131 2°47.831 7.110816 3.380014 33.084773 9.331571
2004-03-19 07:57:19 51°12.122 2°47.803 7.110522 3.393075 33.225887 9.028187
2004-03-19 07:57:25 51°12.111 2°47.769 7.110522 3.393075 33.225887 9.028187
2004-03-19 07:57:29 51°12.104 2°47.746 7.108364 3.30365 32.256712 9.4327
2004-03-19 07:57:34 51°12.094 2°47.718 7.108217 3.387493 33.166028 9.533828
2004-03-19 07:57:39 51°12.085 2°47.69 7.112435 3.386755 33.157202 9.97205
2004-03-19 07:57:45 51°12.075 2°47.657 7.110522 3.391285 33.207239 9.668665
2004-03-19 07:57:49 51°12.067 2°47.634 7.114348 3.380435 33.090162 9.533828
2004-03-19 07:57:54 51°12.058 2°47.606 7.114348 3.380435 33.090162 9.533828
2004-03-19 07:57:59 51°12.049 2°47.578 7.112582 3.400449 33.306862 9.904631
2004-03-19 07:58:03 51°12.042 2°47.556 7.115721 3.383174 33.117477 9.365281
2004-03-19 07:58:09 51°12.03 2°47.522 7.118271 3.374642 33.026424 9.533828
2004-03-19 07:58:14 51°12.021 2°47.494 7.119694 3.398132 33.279216 9.668665
2004-03-19 07:58:19 51°12.012 2°47.466 7.123126 3.382331 33.108322 10.005759
2004-03-19 07:58:25 51°12.001 2°47.432 7.123126 3.382331 33.108322 10.005759
2004-03-19 07:58:29 51°11.994 2°47.41 7.12347 3.400133 33.300157 9.736084
2004-03-19 07:58:34 51°11.984 2°47.381 7.124156 3.384543 33.12829 9.500118
2004-03-19 07:58:39 51°11.975 2°47.353 7.125726 3.392443 33.211682 9.466409
2004-03-19 07:58:43 51°11.968 2°47.331 7.128521 3.381067 33.085661 9.769794
2004-03-19 07:58:49 51°11.957 2°47.297 7.129109 3.366425 32.925904 9.702375
2004-03-19 07:58:54 51°11.948 2°47.269 7.129109 3.366425 32.925904 9.702375
2004-03-19 07:58:59 51°11.939 2°47.241 7.129746 3.379487 33.06688 9.365281
2004-03-19 07:59:03 51°11.932 2°47.219 7.132492 3.382015 33.092709 9.297862
2004-03-19 07:59:09 51°11.921 2°47.184 7.132149 3.385912 33.133411 9.736084
2004-03-19 07:59:14 51°11.913 2°47.156 7.134012 3.398658 33.270247 10.208016
2004-03-19 07:59:19 51°11.905 2°47.127 7.135238 3.389072 33.16448 9.634956
2004-03-19 07:59:23 51°11.899 2°47.104 7.135238 3.389072 33.16448 9.634956
2004-03-19 07:59:29 51°11.889 2°47.069 7.129158 3.39002 33.17315 9.702375
2004-03-19 07:59:34 51°11.881 2°47.04 7.126265 3.400238 33.284152 10.039469
2004-03-19 07:59:39 51°11.874 2°47.011 7.127099 3.408139 33.369196 9.702375
2004-03-19 07:59:45 51°11.864 2°46.976 7.123176 3.39297 33.203557 9.736084
2004-03-19 07:59:49 51°11.858 2°46.953 7.122342 3.360948 32.857605 9.803503
2004-03-19 07:59:54 51°11.85 2°46.923 7.122342 3.360948 32.857605 9.803503
2004-03-19 07:59:59 51°11.843 2°46.894 7.12293 3.402345 33.308679 9.634956
2004-03-19 08:00:03 51°11.836 2°46.871 7.122048 3.392338 33.202392 9.904631
2004-03-19 08:00:09 51°11.827 2°46.836 7.122685 3.399712 33.284959 10.039469
2004-03-19 08:00:14 51°11.819 2°46.808 7.123421 3.390758 33.189298 9.803503
2004-03-19 08:00:19 51°11.811 2°46.779 7.125676 3.401713 33.309163 9.837212
2004-03-19 08:00:23 51°11.805 2°46.755 7.125676 3.401713 33.309163 9.837212
2004-03-19 08:00:29 51°11.796 2°46.721 7.128766 3.397289 33.261077 9.870922
2004-03-19 08:00:34 51°11.788 2°46.692 7.127981 3.38528 33.13061 9.533828
2004-03-19 08:00:39 51°11.78 2°46.662 7.129305 3.392022 33.203031 10.106888
2004-03-19 08:00:45 51°11.771 2°46.627 7.130335 3.387914 33.157588 9.870922
2004-03-19 08:00:49 51°11.764 2°46.604 7.13259 3.397921 33.264682 9.634956
2004-03-19 08:00:54 51°11.757 2°46.575 7.13259 3.397921 33.264682 9.634956
2004-03-19 08:00:59 51°11.749 2°46.546 7.131806 3.385912 33.133411 9.938341
2004-03-19 08:01:03 51°11.743 2°46.522 7.132787 3.388019 33.155479 9.668665
2004-03-19 08:01:09 51°11.733 2°46.487 7.134012 3.374009 33.002555 9.803503
2004-03-19 08:01:14 51°11.726 2°46.458 7.137101 3.402661 33.312113 9.837212
2004-03-19 08:01:19 51°11.718 2°46.429 7.139013 3.397078 33.251446 9.634956
2004-03-19 08:01:25 51°11.708 2°46.395 7.139013 3.397078 33.251446 9.634956
2004-03-19 08:01:29 51°11.702 2°46.371 7.142053 3.392127 33.196846 10.073178
2004-03-19 08:01:34 51°11.694 2°46.342 7.143622 3.378328 33.045383 9.837212
2004-03-19 08:01:39 51°11.687 2°46.314 7.143622 3.403504 33.317186 9.938341
2004-03-19 08:01:43 51°11.68 2°46.291 7.142053 3.397499 33.250316 10.106888
2004-03-19 08:01:49 51°11.671 2°46.256 7.137346 3.351889 32.752948 9.837212
2004-03-19 08:01:54 51°11.664 2°46.227 7.137346 3.351889 32.752948 9.837212
2004-03-19 08:01:59 51°11.656 2°46.197 7.13715 3.39613 33.230551 10.039469
2004-03-19 08:02:05 51°11.646 2°46.163 7.135238 3.382436 33.081868 10.443982
2004-03-19 08:02:09 51°11.64 2°46.139 7.133081 3.39455 33.212576 9.904631
2004-03-19 08:02:14 51°11.632 2°46.11 7.132983 3.390758 33.17465 10.140597
2004-03-19 08:02:19 51°11.625 2°46.081 7.133718 3.396657 33.240346 10.208016
2004-03-19 08:02:24 51°11.617 2°46.052 7.133718 3.396657 33.240346 10.208016
2004-03-19 08:02:29 51°11.609 2°46.022 7.13313 3.398447 33.262247 10.039469
2004-03-19 08:02:34 51°11.601 2°45.993 7.13362 3.39771 33.255051 10.342853
2004-03-19 08:02:39 51°11.593 2°45.964 7.127785 3.37264 32.983648 10.342853
2004-03-19 08:02:43 51°11.587 2°45.941 7.12955 3.396446 33.242134 10.376563
2004-03-19 08:02:49 51°11.577 2°45.906 7.129403 3.395814 33.235267 10.477691
2004-03-19 08:02:54 51°11.569 2°45.877 7.129403 3.395814 33.235267 10.477691
2004-03-19 08:02:59 51°11.562 2°45.848 7.125578 3.379487 33.059582 10.410272
2004-03-19 08:03:03 51°11.555 2°45.825 7.128275 3.40087 33.293469 10.208016
2004-03-19 08:03:09 51°11.546 2°45.789 7.12803 3.374536 33.007462 10.342853
2004-03-19 08:03:14 51°11.538 2°45.76 7.126559 3.380119 33.068876 10.309144
2004-03-19 08:03:19 51°11.53 2°45.731 7.127246 3.403925 33.329121 10.679947
2004-03-19 08:03:23 51°11.524 2°45.708 7.127246 3.403925 33.329121 10.679947
2004-03-19 08:03:29 51°11.515 2°45.672 7.13009 3.393391 33.21465 10.309144
2004-03-19 08:03:34 51°11.507 2°45.643 7.1321 3.401608 33.303933 10.309144
2004-03-19 08:03:39 51°11.499 2°45.614 7.131414 3.400133 33.287905 10.410272
2004-03-19 08:03:45 51°11.49 2°45.579 7.132836 3.408771 33.382616 10.376563
2004-03-19 08:03:49 51°11.484 2°45.556 7.135189 3.409087 33.385233 10.646238
2004-03-19 08:03:54 51°11.476 2°45.527 7.135189 3.409087 33.385233 10.646238
2004-03-19 08:03:59 51°11.468 2°45.498 7.137592 3.406769 33.35922 10.410272
2004-03-19 08:04:03 51°11.462 2°45.475 7.140582 3.410878 33.402246 10.679947
2004-03-19 08:04:09 51°11.452 2°45.44 7.140484 3.394339 33.221691 10.275435
2004-03-19 08:04:14 51°11.444 2°45.411 7.13818 3.398342 33.262733 10.54511
2004-03-19 08:04:19 51°11.436 2°45.382 7.135336 3.398237 33.259958 10.309144
2004-03-19 08:04:23 51°11.43 2°45.359 7.135336 3.398237 33.259958 10.309144
2004-03-19 08:04:29 51°11.421 2°45.324 7.131217 3.399501 33.272875 10.477691
2004-03-19 08:04:34 51°11.413 2°45.294 7.133865 3.394655 33.217792 10.747366
2004-03-19 08:04:39 51°11.405 2°45.265 7.13259 3.39771 33.251789 10.679947
2004-03-19 08:04:45 51°11.395 2°45.23 7.130825 3.412563 33.415653 10.848494
2004-03-19 08:04:49 51°11.389 2°45.207 7.129305 3.402029 33.301978 10.646238
2004-03-19 08:04:54 51°11.381 2°45.178 7.129305 3.402029 33.301978 10.646238
2004-03-19 08:04:59 51°11.374 2°45.149 7.129697 3.394971 33.225298 10.949623
2004-03-19 08:05:03 51°11.367 2°45.125 7.128324 3.363476 32.883414 11.017042
2004-03-19 08:05:09 51°11.358 2°45.09 7.126706 3.388756 33.159421 10.679947
2004-03-19 08:05:14 51°11.35 2°45.061 7.124254 3.411299 33.406007 10.781076
2004-03-19 08:05:19 51°11.343 2°45.032 7.123568 3.393497 33.212536 11.050751
2004-03-19 08:05:25 51°11.333 2°44.997 7.123568 3.393497 33.212536 11.050751
2004-03-19 08:05:29 51°11.327 2°44.974 7.1219 3.391074 33.187846 10.747366
2004-03-19 08:05:34 51°11.319 2°44.945 7.118615 3.394445 33.22691 10.781076
2004-03-19 08:05:39 51°11.312 2°44.915 7.117438 3.39929 33.281196 11.08446
2004-03-19 08:05:43 51°11.305 2°44.892 7.116506 3.402872 33.320941 10.781076
2004-03-19 08:05:49 51°11.296 2°44.857 7.113024 3.38823 33.164275 10.949623
2004-03-19 08:05:53 51°11.29 2°44.834 7.113024 3.38823 33.164275 10.949623
2004-03-19 08:05:59 51°11.28 2°44.799 7.114544 3.395604 33.246839 10.578819
2004-03-19 08:06:03 51°11.274 2°44.776 7.112631 3.398869 33.283148 10.983332
2004-03-19 08:06:09 51°11.265 2°44.741 7.112092 3.397394 33.267118 11.08446
2004-03-19 08:06:14 51°11.257 2°44.712 7.11322 3.395604 33.249287 11.11817
2004-03-19 08:06:19 51°11.25 2°44.683 7.113759 3.401081 33.312099 10.983332
2004-03-19 08:06:25 51°11.24 2°44.648 7.113759 3.401081 33.312099 10.983332
2004-03-19 08:06:29 51°11.234 2°44.625 7.117536 3.373062 33.008456 10.5114
2004-03-19 08:06:34 51°11.226 2°44.596 7.113612 3.39139 33.207569 11.11817
2004-03-19 08:06:39 51°11.218 2°44.567 7.109002 3.356524 32.829751 11.11817
2004-03-19 08:06:43 51°11.212 2°44.544 7.106304 3.384017 33.127445 11.151879
2004-03-19 08:06:49 51°11.202 2°44.509 7.108021 3.391706 33.210188 11.017042
2004-03-19 08:06:54 51°11.194 2°44.48 7.108021 3.391706 33.210188 11.017042
2004-03-19 08:06:59 51°11.187 2°44.451 7.107726 3.40698 33.376247 10.814785
2004-03-19 08:07:03 51°11.18 2°44.428 7.103998 3.404347 33.350063 11.11817
2004-03-19 08:07:09 51°11.171 2°44.393 7.103459 3.40382 33.34679 10.713657
2004-03-19 08:07:14 51°11.163 2°44.364 7.098602 3.408982 33.402933 10.612529
2004-03-19 08:07:19 51°11.156 2°44.334 7.10027 3.395288 33.255644 10.747366
2004-03-19 08:07:24 51°11.148 2°44.305 7.10027 3.395288 33.255644 10.747366
2004-03-19 08:07:29 51°11.141 2°44.276 7.098602 3.398237 33.289347 10.679947
2004-03-19 08:07:35 51°11.131 2°44.241 7.096198 3.400344 33.313075 10.679947
2004-03-19 08:07:39 51°11.125 2°44.218 7.096542 3.395498 33.262833 11.08446
2004-03-19 08:07:45 51°11.116 2°44.183 7.091096 3.327032 32.520321 11.11817
2004-03-19 08:07:49 51°11.11 2°44.16 7.085796 3.280901 32.02316 10.477691
2004-03-19 08:07:54 51°11.102 2°44.131 7.085796 3.280901 32.02316 10.477691
2004-03-19 08:07:59 51°11.094 2°44.102 7.083637 3.33114 32.568849 10.646238
2004-03-19 08:08:03 51°11.088 2°44.079 7.080742 3.383279 33.134883 10.949623
2004-03-19 08:08:09 51°11.079 2°44.044 7.07343 3.40519 33.37643 10.915913
2004-03-19 08:08:14 51°11.071 2°44.015 7.071418 3.398764 33.31061 10.679947
2004-03-19 08:08:19 51°11.063 2°43.986 7.072449 3.404874 33.379548 10.814785
2004-03-19 08:08:24 51°11.055 2°43.957 7.072449 3.404874 33.379548 10.814785
2004-03-19 08:08:29 51°11.048 2°43.929 7.067393 3.396868 33.296524 10.747366
2004-03-19 08:08:34 51°11.04 2°43.9 7.068522 3.40224 33.358263 10.983332
2004-03-19 08:08:39 51°11.032 2°43.871 7.06597 3.411616 33.463618 10.713657
2004-03-19 08:08:44 51°11.025 2°43.842 7.060865 3.412248 33.472146 10.781076
2004-03-19 08:08:49 51°11.017 2°43.813 7.06219 3.404347 33.387757 10.949623
2004-03-19 08:08:54 51°11.01 2°43.784 7.06219 3.404347 33.387757 10.949623
2004-03-19 08:08:59 51°11.002 2°43.755 7.057429 3.397711 33.31797 10.781076
2004-03-19 08:09:03 51°10.995 2°43.731 7.055858 3.410457 33.458398 10.747366
2004-03-19 08:09:09 51°10.986 2°43.697 7.053256 3.410773 33.464308 10.5114
2004-03-19 08:09:14 51°10.979 2°43.668 7.051194 3.392865 33.271772 10.477691
2004-03-19 08:09:19 51°10.971 2°43.639 7.045351 3.408561 33.444322 10.915913
2004-03-19 08:09:23 51°10.965 2°43.616 7.045351 3.408561 33.444322 10.915913
2004-03-19 08:09:29 51°10.955 2°43.581 7.042651 3.413407 33.499584 10.679947
2004-03-19 08:09:34 51°10.947 2°43.552 7.041276 3.396868 33.32108 11.151879
2004-03-19 08:09:39 51°10.94 2°43.523 7.045106 3.392549 33.275694 10.612529
2004-03-19 08:09:43 51°10.934 2°43.5 7.042651 3.411405 33.486831 10.781076
2004-03-19 08:09:49 51°10.924 2°43.465 7.037691 3.399923 33.362548 10.747366
2004-03-19 08:09:54 51°10.917 2°43.436 7.037691 3.399923 33.362548 10.747366
2004-03-19 08:09:59 51°10.909 2°43.407 7.039116 3.407508 33.44847 10.915913
2004-03-19 08:10:03 51°10.903 2°43.384 7.043093 3.412248 33.500135 10.54511
2004-03-19 08:10:09 51°10.894 2°43.349 7.039312 3.392339 33.284038 10.713657
2004-03-19 08:10:14 51°10.886 2°43.32 7.039508 3.390337 33.263878 10.612529
2004-03-19 08:10:19 51°10.878 2°43.291 7.041718 3.39592 33.327144 10.679947
2004-03-19 08:10:25 51°10.869 2°43.257 7.041718 3.39592 33.327144 10.679947
2004-03-19 08:10:29 51°10.863 2°43.233 7.04108 3.408034 33.458324 10.477691
2004-03-19 08:10:34 51°10.855 2°43.205 7.043437 3.399397 33.365015 10.443982
2004-03-19 08:10:39 51°10.847 2°43.176 7.042504 3.380436 33.159335 10.477691
2004-03-19 08:10:43 51°10.841 2°43.152 7.047463 3.401082 33.383379 10.578819
2004-03-19 08:10:49 51°10.832 2°43.118 7.04324 3.395288 33.31862 10.54511
2004-03-19 08:10:54 51°10.824 2°43.089 7.04324 3.395288 33.31862 10.54511
2004-03-19 08:10:59 51°10.817 2°43.06 7.044468 3.408666 33.465213 10.646238
2004-03-19 08:11:04 51°10.809 2°43.031 7.042504 3.412985 33.510645 10.713657
2004-03-19 08:11:09 51°10.801 2°43.002 7.046284 3.401819 33.386487 10.376563
2004-03-19 08:11:14 51°10.793 2°42.973 7.044664 3.384755 33.200639 10.747366
2004-03-19 08:11:19 51°10.786 2°42.944 7.046137 3.410879 33.486032 10.578819
2004-03-19 08:11:23 51°10.779 2°42.921 7.046137 3.410879 33.486032 10.578819
2004-03-19 08:11:29 51°10.77 2°42.887 7.043338 3.399502 33.36288 10.679947
2004-03-19 08:11:34 51°10.762 2°42.858 7.043535 3.39413 33.302722 11.050751
2004-03-19 08:11:39 51°10.754 2°42.829 7.045057 3.40814 33.454535 10.477691
2004-03-19 08:11:45 51°10.745 2°42.794 7.043731 3.324084 32.54187 10.747366
2004-03-19 08:11:49 51°10.739 2°42.771 7.045695 3.393919 33.301246 10.713657
2004-03-19 08:11:54 51°10.731 2°42.742 7.045695 3.393919 33.301246 10.713657
2004-03-19 08:11:59 51°10.723 2°42.713 7.046481 3.414776 33.528519 10.781076
2004-03-19 08:12:05 51°10.715 2°42.679 7.048248 3.414355 33.523101 10.983332
2004-03-19 08:12:09 51°10.708 2°42.656 7.044222 3.411195 33.488653 10.781076
2004-03-19 08:12:14 51°10.701 2°42.627 7.043682 3.414249 33.521128 10.578819
2004-03-19 08:12:19 51°10.693 2°42.598 7.046481 3.412143 33.498163 10.477691
2004-03-19 08:12:25 51°10.684 2°42.563 7.046481 3.412143 33.498163 10.477691
2004-03-19 08:12:29 51°10.678 2°42.54 7.047561 3.413617 33.513414 10.578819
2004-03-19 08:12:34 51°10.67 2°42.511 7.04486 3.411089 33.486681 10.882204
2004-03-19 08:12:39 51°10.662 2°42.483 7.043928 3.415092 33.532789 11.050751
2004-03-19 08:12:43 51°10.656 2°42.459 7.046235 3.411932 33.497514 11.017042
2004-03-19 08:12:49 51°10.647 2°42.425 7.045695 3.413933 33.518508 10.882204
2004-03-19 08:12:54 51°10.639 2°42.396 7.045695 3.413933 33.518508 10.882204
2004-03-19 08:12:59 51°10.632 2°42.368 7.04324 3.39413 33.302722 11.08446
2004-03-19 08:13:04 51°10.624 2°42.339 7.04049 3.414671 33.528195 10.747366
2004-03-19 08:13:09 51°10.617 2°42.31 7.041571 3.415514 33.536558 10.713657
2004-03-19 08:13:14 51°10.609 2°42.281 7.040589 3.413723 33.51786 10.915913
2004-03-19 08:13:19 51°10.601 2°42.253 7.042553 3.41425 33.524426 10.477691
2004-03-19 08:13:24 51°10.594 2°42.224 7.042553 3.41425 33.524426 10.477691
2004-03-19 08:13:29 51°10.586 2°42.195 7.041571 3.414776 33.530993 11.08446
2004-03-19 08:13:35 51°10.578 2°42.161 7.042455 3.413723 33.520333 10.882204
2004-03-19 08:13:39 51°10.572 2°42.138 7.044124 3.414355 33.528049 10.983332
2004-03-19 08:13:45 51°10.564 2°42.103 7.040294 3.410036 33.48014 10.848494
2004-03-19 08:13:49 51°10.558 2°42.08 7.042553 3.402135 33.394858 10.949623
2004-03-19 08:13:54 51°10.551 2°42.051 7.042553 3.402135 33.394858 10.949623
2004-03-19 08:13:59 51°10.544 2°42.022 7.041669 3.413301 33.514915 10.882204
2004-03-19 08:14:05 51°10.536 2°41.987 7.042455 3.412459 33.505728 11.556392
2004-03-19 08:14:09 51°10.531 2°41.964 7.04108 3.406876 33.445695 11.11817
2004-03-19 08:14:14 51°10.524 2°41.935 7.042356 3.411932 33.50081 11.253007
2004-03-19 08:14:19 51°10.517 2°41.906 7.041129 3.416567 33.551344 11.219298
2004-03-19 08:14:23 51°10.511 2°41.883 7.041129 3.416567 33.551344 11.219298
2004-03-19 08:14:29 51°10.503 2°41.848 7.042896 3.416251 33.547898 11.185589
2004-03-19 08:14:34 51°10.495 2°41.819 7.042798 3.412353 33.506228 11.455264
2004-03-19 08:14:39 51°10.488 2°41.79 7.042602 3.41604 33.546426 11.253007
2004-03-19 08:14:45 51°10.48 2°41.755 7.041423 3.415303 33.538386 11.792358
2004-03-19 08:14:49 51°10.475 2°41.732 7.037986 3.416462 33.550195 11.219298
2004-03-19 08:14:54 51°10.468 2°41.703 7.037986 3.416462 33.550195 11.219298
2004-03-19 08:14:59 51°10.461 2°41.673 7.040883 3.408034 33.458324 11.421554
2004-03-19 08:15:05 51°10.452 2°41.639 7.03833 3.38328 33.18785 11.185589
2004-03-19 08:15:09 51°10.447 2°41.616 7.04054 3.377803 33.12904 11.320426
2004-03-19 08:15:14 51°10.44 2°41.587 7.041031 3.414776 33.531818 11.859777
2004-03-19 08:15:19 51°10.433 2°41.558 7.041374 3.413828 33.521482 11.455264
2004-03-19 08:15:25 51°10.424 2°41.523 7.041374 3.413828 33.521482 11.455264
2004-03-19 08:15:29 51°10.419 2°41.5 7.042013 3.417515 33.563333 11.488973
2004-03-19 08:15:34 51°10.412 2°41.471 7.041669 3.416462 33.551846 11.522683
2004-03-19 08:15:39 51°10.405 2°41.442 7.040294 3.417199 33.559887 11.455264
2004-03-19 08:15:43 51°10.4 2°41.419 7.041227 3.400977 33.383874 11.758648
2004-03-19 08:15:49 51°10.391 2°41.384 7.039312 3.41762 33.563656 11.455264
2004-03-19 08:15:54 51°10.384 2°41.355 7.039312 3.41762 33.563656 11.455264
2004-03-19 08:15:59 51°10.377 2°41.326 7.040245 3.417199 33.559887 11.219298
2004-03-19 08:16:04 51°10.37 2°41.297 7.041423 3.416883 33.555615 11.455264
2004-03-19 08:16:09 51°10.363 2°41.268 7.043486 3.41583 33.544954 11.758648
2004-03-19 08:16:14 51°10.356 2°41.24 7.041571 3.41604 33.548077 11.65752
2004-03-19 08:16:19 51°10.349 2°41.211 7.040392 3.418147 33.570226 11.69123
2004-03-19 08:16:25 51°10.341 2°41.176 7.040392 3.418147 33.570226 11.69123
2004-03-19 08:16:29 51°10.335 2°41.153 7.043731 3.416356 33.549872 11.623811
2004-03-19 08:16:33 51°10.33 2°41.13 7.038281 3.418042 33.567425 11.488973
2004-03-19 08:16:39 51°10.322 2°41.096 7.038526 3.416462 33.551021 11.253007
2004-03-19 08:16:43 51°10.316 2°41.073 7.040736 3.410247 33.48326 11.556392
2004-03-19 08:16:49 51°10.308 2°41.038 7.041718 3.418147 33.5694 11.792358
2004-03-19 08:16:54 51°10.301 2°41.01 7.041718 3.418147 33.5694 11.792358
2004-03-19 08:16:59 51°10.294 2°40.981 7.039557 3.415619 33.542657 11.354136
2004-03-19 08:17:04 51°10.287 2°40.952 7.042307 3.416778 33.556118 11.455264
2004-03-19 08:17:09 51°10.28 2°40.923 7.038772 3.41762 33.564482 11.724939
2004-03-19 08:17:14 51°10.274 2°40.895 7.040932 3.41762 33.565307 11.286717
2004-03-19 08:17:19 51°10.267 2°40.866 7.043387 3.40498 33.427497 11.522683
2004-03-19 08:17:25 51°10.259 2°40.831 7.043387 3.40498 33.427497 11.522683
2004-03-19 08:17:29 51°10.253 2°40.808 7.043878 3.416778 33.555292 11.421554
2004-03-19 08:17:34 51°10.246 2°40.779 7.044419 3.41741 33.561359 11.65752
2004-03-19 08:17:39 51°10.239 2°40.751 7.04432 3.417936 33.567102 11.758648
2004-03-19 08:17:45 51°10.231 2°40.716 7.044173 3.416883 33.55479 11.286717
2004-03-19 08:17:49 51°10.225 2°40.693 7.044762 3.417199 33.558236 11.556392
2004-03-19 08:17:54 51°10.219 2°40.664 7.044762 3.417199 33.558236 11.556392
2004-03-19 08:17:59 51°10.212 2°40.635 7.046481 3.416883 33.553964 11.927195
2004-03-19 08:18:03 51°10.207 2°40.612 7.04923 3.416251 33.547073 11.286717
2004-03-19 08:18:09 51°10.199 2°40.578 7.04869 3.409299 33.471279 11.522683
2004-03-19 08:18:14 51°10.192 2°40.549 7.049574 3.416883 33.553139 11.927195
2004-03-19 08:18:19 51°10.185 2°40.52 7.050212 3.418674 33.571014 11.320426
2004-03-19 08:18:25 51°10.177 2°40.486 7.050212 3.418674 33.571014 11.320426
2004-03-19 08:18:29 51°10.172 2°40.463 7.053501 3.417831 33.561 11.253007
2004-03-19 08:18:34 51°10.165 2°40.434 7.055563 3.414355 33.521452 11.893486
2004-03-19 08:18:39 51°10.158 2°40.405 7.056692 3.418042 33.561646 12.028324
2004-03-19 08:18:43 51°10.152 2°40.382 7.060718 3.418252 33.562292 11.893486
2004-03-19 08:18:49 51°10.144 2°40.348 7.059294 3.413407 33.507821 12.129452
2004-03-19 08:18:54 51°10.137 2°40.319 7.059294 3.413407 33.507821 12.129452
2004-03-19 08:18:59 51°10.131 2°40.29 7.063025 3.418568 33.562436 11.960905
2004-03-19 08:19:03 51°10.125 2°40.267 7.066264 3.408666 33.453693 12.062033
2004-03-19 08:19:09 51°10.117 2°40.233 7.063761 3.417515 33.547653 11.893486
2004-03-19 08:19:14 51°10.11 2°40.204 7.064988 3.419306 33.564698 11.960905
2004-03-19 08:19:19 51°10.103 2°40.176 7.066362 3.416567 33.534022 11.960905
2004-03-19 08:19:23 51°10.098 2°40.153 7.066362 3.416567 33.534022 11.960905
2004-03-19 08:19:29 51°10.089 2°40.118 7.069553 3.417936 33.548947 12.23058
2004-03-19 08:19:34 51°10.082 2°40.09 7.070927 3.418463 33.552213 12.129452
2004-03-19 08:19:39 51°10.076 2°40.061 7.072449 3.421413 33.58436 12.028324
2004-03-19 08:19:43 51°10.07 2°40.038 7.072399 3.40519 33.405141 11.994614
2004-03-19 08:19:49 51°10.062 2°40.003 7.072792 3.42078 33.573344 11.859777
2004-03-19 08:19:54 51°10.055 2°39.975 7.072792 3.42078 33.573344 11.859777
2004-03-19 08:19:59 51°10.048 2°39.946 7.073037 3.414565 33.50315 11.421554
2004-03-19 08:20:03 51°10.042 2°39.923 7.075197 3.421202 33.574635 12.196871
2004-03-19 08:20:09 51°10.034 2°39.889 7.073823 3.418358 33.544468 12.23058
2004-03-19 08:20:14 51°10.027 2°39.86 7.075982 3.416567 33.523308 12.129452
2004-03-19 08:20:19 51°10.02 2°39.831 7.078583 3.413301 33.48691 12.297999
2004-03-19 08:20:23 51°10.014 2°39.809 7.078583 3.413301 33.48691 12.297999
2004-03-19 08:20:29 51°10.006 2°39.774 7.080252 3.421096 33.571012 12.095742
2004-03-19 08:20:34 51°9.999 2°39.746 7.079614 3.421412 33.574456 11.927195
2004-03-19 08:20:39 51°9.993 2°39.717 7.081822 3.417831 33.533784 12.399127
2004-03-19 08:20:45 51°9.985 2°39.682 7.08349 3.42236 33.582311 11.826067
2004-03-19 08:20:49 51°9.979 2°39.659 7.085257 3.421728 33.572949 12.23058
2004-03-19 08:20:54 51°9.973 2°39.63 7.085257 3.421728 33.572949 12.23058
2004-03-19 08:20:59 51°9.966 2°39.602 7.085747 3.418884 33.541963 12.331708
2004-03-19 08:21:05 51°9.958 2°39.567 7.088201 3.395604 33.287677 12.432836
2004-03-19 08:21:09 51°9.952 2°39.544 7.088888 3.421728 33.56965 12.500255
2004-03-19 08:21:14 51°9.945 2°39.516 7.091783 3.419516 33.543903 12.399127
2004-03-19 08:21:19 51°9.939 2°39.487 7.091832 3.417409 33.520133 12.567674
2004-03-19 08:21:23 51°9.933 2°39.464 7.091832 3.417409 33.520133 12.567674
2004-03-19 08:21:29 51°9.925 2°39.43 7.094873 3.418252 33.528487 12.567674
2004-03-19 08:21:34 51°9.918 2°39.401 7.09713 3.418884 33.534547 12.635093
2004-03-19 08:21:39 51°9.911 2°39.372 7.097179 3.411826 33.456048 12.871059
2004-03-19 08:21:43 51°9.906 2°39.349 7.100859 3.417725 33.518634 12.533965
2004-03-19 08:21:49 51°9.898 2°39.315 7.103459 3.420675 33.548283 12.635093
2004-03-19 08:21:54 51°9.891 2°39.286 7.103459 3.420675 33.548283 12.635093
2004-03-19 08:21:59 51°9.884 2°39.258 7.103704 3.415513 33.491255 12.668802
2004-03-19 08:22:04 51°9.877 2°39.229 7.107579 3.414881 33.481907 12.668802
2004-03-19 08:22:09 51°9.871 2°39.201 7.108903 3.41762 33.510079 12.938477
2004-03-19 08:22:14 51°9.864 2°39.172 7.111111 3.41762 33.506788 12.871059
2004-03-19 08:22:19 51°9.857 2°39.143 7.116604 3.401713 33.332059 12.702512
2004-03-19 08:22:23 51°9.851 2°39.12 7.116604 3.401713 33.332059 12.702512
2004-03-19 08:22:29 51°9.843 2°39.086 7.117291 3.422676 33.557718 12.938477
2004-03-19 08:22:35 51°9.835 2°39.052 7.11989 3.413406 33.455994 13.3767
2004-03-19 08:22:39 51°9.83 2°39.029 7.120871 3.421623 33.543779 12.972187
2004-03-19 08:22:43 51°9.824 2°39.006 7.124156 3.420359 33.526727 13.511537
2004-03-19 08:22:49 51°9.816 2°38.972 7.126951 3.420359 33.524258 13.241862
2004-03-19 08:22:54 51°9.81 2°38.943 7.126951 3.420359 33.524258 13.241862
2004-03-19 08:22:59 51°9.803 2°38.914 7.128619 3.411405 33.425189 13.241862
2004-03-19 08:23:03 51°9.797 2°38.892 7.131904 3.392549 33.216902 13.107024
2004-03-19 08:23:09 51°9.789 2°38.857 7.134699 3.421939 33.534871 12.871059
2004-03-19 08:23:14 51°9.783 2°38.829 7.135728 3.423519 33.55042 13.275571
2004-03-19 08:23:19 51°9.776 2°38.8 7.138817 3.421201 33.522734 12.972187
2004-03-19 08:23:24 51°9.769 2°38.771 7.138817 3.421201 33.522734 12.972187
2004-03-19 08:23:29 51°9.763 2°38.743 7.143622 3.415302 33.455276 13.208153
2004-03-19 08:23:34 51°9.756 2°38.714 7.143671 3.42394 33.547597 13.34299
2004-03-19 08:23:39 51°9.749 2°38.686 7.146906 3.422255 33.526793 13.309281
2004-03-19 08:23:44 51°9.742 2°38.657 7.149112 3.424783 33.552651 13.444118
2004-03-19 08:23:49 51°9.735 2°38.629 7.152592 3.414354 33.435943 13.275571
2004-03-19 08:23:53 51°9.73 2°38.606 7.152592 3.414354 33.435943 13.275571
2004-03-19 08:23:59 51°9.722 2°38.571 7.156808 3.424572 33.544599 13.34299
2004-03-19 08:24:03 51°9.716 2°38.549 7.159307 3.42689 33.567339 13.241862
2004-03-19 08:24:09 51°9.708 2°38.514 7.163914 3.423308 33.525917 13.241862
2004-03-19 08:24:13 51°9.703 2°38.491 7.168619 3.426889 33.562401 13.174443
2004-03-19 08:24:19 51°9.695 2°38.457 7.173127 3.422465 33.510179 13.208153
2004-03-19 08:24:24 51°9.688 2°38.428 7.173127 3.422465 33.510179 13.208153
2004-03-19 08:24:29 51°9.682 2°38.399 7.177831 3.423202 33.515732 13.309281
2004-03-19 08:24:34 51°9.675 2°38.37 7.18278 3.424677 33.527657 13.241862
2004-03-19 08:24:39 51°9.668 2°38.342 7.188267 3.424993 33.526984 13.511537
2004-03-19 08:24:44 51°9.662 2°38.313 7.193508 3.421517 33.485097 13.073315
2004-03-19 08:24:49 51°9.655 2°38.285 7.198211 3.428153 33.553116 13.477828
2004-03-19 08:24:54 51°9.648 2°38.256 7.198211 3.428153 33.553116 13.477828
2004-03-19 08:24:59 51°9.641 2°38.227 7.204872 3.417408 33.431446 13.477828
2004-03-19 08:25:05 51°9.633 2°38.193 7.211386 3.424888 33.507774 13.91605
2004-03-19 08:25:09 51°9.628 2°38.17 7.216674 3.427521 33.531459 13.814922
2004-03-19 08:25:14 51°9.621 2°38.141 7.222403 3.430576 33.56054 13.814922
2004-03-19 08:25:19 51°9.614 2°38.113 7.229209 3.429944 33.547924 13.410409
2004-03-19 08:25:24 51°9.608 2°38.084 7.229209 3.429944 33.547924 13.410409
2004-03-19 08:25:29 51°9.601 2°38.055 7.235671 3.429838 33.540211 13.781212
2004-03-19 08:25:34 51°9.594 2°38.027 7.240958 3.424255 33.474674 13.545247
2004-03-19 08:25:39 51°9.588 2°37.998 7.246538 3.431524 33.548663 13.713794
2004-03-19 08:25:43 51°9.582 2°37.975 7.251089 3.432261 33.550102 13.646375
2004-03-19 08:25:49 51°9.574 2°37.941 7.255396 3.43047 33.524102 13.882341
2004-03-19 08:25:54 51°9.567 2°37.913 7.255396 3.43047 33.524102 13.882341
2004-03-19 08:25:59 51°9.561 2°37.884 7.260192 3.433841 33.555764 14.354272
2004-03-19 08:26:05 51°9.552 2°37.85 7.264253 3.431524 33.525696 14.320563
2004-03-19 08:26:09 51°9.547 2°37.827 7.268902 3.435 33.559313 14.185725
2004-03-19 08:26:14 51°9.54 2°37.798 7.273403 3.434052 33.544106 13.91605
2004-03-19 08:26:19 51°9.534 2°37.77 7.277463 3.434157 33.540331 14.320563
2004-03-19 08:26:25 51°9.526 2°37.735 7.277463 3.434157 33.540331 14.320563
2004-03-19 08:26:29 51°9.521 2°37.713 7.283236 3.427942 33.468021 14.152016
2004-03-19 08:26:34 51°9.514 2°37.684 7.286611 3.426361 33.446805 14.286853
2004-03-19 08:26:39 51°9.507 2°37.656 7.290377 3.427836 33.459522 13.848631
2004-03-19 08:26:43 51°9.502 2°37.633 7.294192 3.424781 33.422329 14.590238
2004-03-19 08:26:49 51°9.494 2°37.599 7.296393 3.437422 33.554434 14.320563
2004-03-19 08:26:54 51°9.487 2°37.57 7.296393 3.437422 33.554434 14.320563
2004-03-19 08:26:59 51°9.48 2°37.541 7.299914 3.435948 33.533533 14.286853
2004-03-19 08:27:01 51°9.478 2°37.53 7.301822 3.436158 33.53336 14.286853
2004-03-19 08:27:09 51°9.467 2°37.484 7.304902 3.42436 33.402264 14.084597
2004-03-19 08:27:14 51°9.46 2°37.456 7.307983 3.438897 33.555673 13.882341
2004-03-19 08:27:19 51°9.453 2°37.427 7.311992 3.437317 33.536094 13.91605
2004-03-19 08:27:25 51°9.445 2°37.393 7.311992 3.437317 33.536094 13.91605
2004-03-19 08:27:29 51°9.44 2°37.37 7.313899 3.437106 33.530538 14.050888
2004-03-19 08:27:34 51°9.433 2°37.342 7.317322 3.406873 33.200789 14.623947
2004-03-19 08:27:39 51°9.426 2°37.313 7.32138 3.437317 33.527093 14.219435
2004-03-19 08:27:45 51°9.418 2°37.279 7.324166 3.43837 33.53605 14.522819
2004-03-19 08:27:49 51°9.413 2°37.256 7.327784 3.426256 33.401603 14.017178
2004-03-19 08:27:54 51°9.406 2°37.228 7.327784 3.426256 33.401603 14.017178
2004-03-19 08:27:59 51°9.399 2°37.199 7.331499 3.440056 33.548578 14.286853
2004-03-19 08:28:05 51°9.391 2°37.164 7.33536 3.439213 33.536178 14.421691
2004-03-19 08:28:09 51°9.386 2°37.141 7.339563 3.420462 33.329951 14.387982
2004-03-19 08:28:13 51°9.38 2°37.119 7.344011 3.437317 33.509106 13.713794
2004-03-19 08:28:19 51°9.372 2°37.085 7.348018 3.434367 33.473909 13.646375
2004-03-19 08:28:25 51°9.364 2°37.051 7.348018 3.434367 33.473909 13.646375
2004-03-19 08:28:29 51°9.359 2°37.028 7.352513 3.443111 33.564475 13.680084
2004-03-19 08:28:34 51°9.352 2°36.999 7.357106 3.437949 33.506145 14.253144
2004-03-19 08:28:39 51°9.345 2°36.971 7.362237 3.441214 33.53577 13.511537
2004-03-19 08:28:44 51°9.338 2°36.942 7.36805 3.443426 33.555626 13.545247
2004-03-19 08:28:49 51°9.331 2°36.914 7.373424 3.443321 33.550398 13.747503
2004-03-19 08:28:54 51°9.325 2°36.885 7.373424 3.443321 33.550398 13.747503
2004-03-19 08:28:59 51°9.318 2°36.856 7.379529 3.443321 33.546311 13.814922
2004-03-19 08:29:05 51°9.31 2°36.822 7.385 3.439634 33.502338 13.949759
2004-03-19 08:29:09 51°9.305 2°36.799 7.390127 3.432997 33.426488 14.152016
2004-03-19 08:29:14 51°9.299 2°36.77 7.398185 3.443742 33.536163 13.91605
2004-03-19 08:29:19 51°9.292 2°36.742 7.406534 3.445428 33.550309 14.017178
2004-03-19 08:29:24 51°9.285 2°36.713 7.406534 3.445428 33.550309 14.017178
2004-03-19 08:29:29 51°9.279 2°36.685 7.412978 3.442267 33.51042 14.118306
2004-03-19 08:29:34 51°9.272 2°36.656 7.420447 3.44174 33.499833 14.253144
2004-03-19 08:29:39 51°9.266 2°36.628 7.427963 3.442583 33.501604 13.882341
2004-03-19 08:29:45 51°9.258 2°36.594 7.435626 3.444269 33.513298 14.152016
2004-03-19 08:29:49 51°9.253 2°36.571 7.447678 3.448061 33.547755 14.48911
2004-03-19 08:29:54 51°9.246 2°36.542 7.447678 3.448061 33.547755 14.48911
2004-03-19 08:29:59 51°9.24 2°36.514 7.465094 3.437421 33.426301 13.680084
2004-03-19 08:30:04 51°9.234 2°36.485 7.48982 3.444058 33.490652 13.747503
2004-03-19 08:30:09 51°9.227 2°36.457 7.525355 3.433102 33.364249 14.050888
2004-03-19 08:30:13 51°9.222 2°36.434 7.553662 3.450694 33.545211 14.050888
2004-03-19 08:30:19 51°9.214 2°36.4 7.575724 3.441318 33.431813 14.253144
2004-03-19 08:30:25 51°9.207 2°36.366 7.575724 3.441318 33.431813 14.253144
2004-03-19 08:30:29 51°9.202 2°36.344 7.601527 3.449008 33.492019 13.882341
2004-03-19 08:30:34 51°9.195 2°36.316 7.613402 3.454065 33.52378 13.646375
2004-03-19 08:30:39 51°9.189 2°36.287 7.625713 3.453538 33.492109 13.309281
2004-03-19 08:30:44 51°9.182 2°36.259 7.63053 3.455644 33.487216 13.34299
2004-03-19 08:30:49 51°9.175 2°36.231 7.635152 3.459015 33.501604 13.477828
2004-03-19 08:30:54 51°9.168 2°36.203 7.635152 3.459015 33.501604 13.477828
2004-03-19 08:30:59 51°9.161 2°36.175 7.639238 3.458383 33.479415 13.241862
2004-03-19 08:31:01 51°9.158 2°36.164 7.642935 3.458699 33.468246 13.140734
2004-03-19 08:31:09 51°9.147 2°36.12 7.645854 3.459752 33.47067 13.578956
2004-03-19 08:31:14 51°9.14 2°36.092 7.648772 3.452904 33.390644 13.241862
2004-03-19 08:31:19 51°9.132 2°36.063 7.650474 3.453537 33.392593 13.174443
2004-03-19 08:31:25 51°9.124 2°36.03 7.650474 3.453537 33.392593 13.174443
2004-03-19 08:31:29 51°9.118 2°36.007 7.653344 3.463334 33.492978 12.736221
2004-03-19 08:31:34 51°9.111 2°35.979 7.655435 3.460805 33.462586 12.736221
2004-03-19 08:31:39 51°9.103 2°35.951 7.656991 3.438261 33.216575 12.736221
2004-03-19 08:31:45 51°9.095 2°35.917 7.659131 3.455854 33.403768 12.80364
2004-03-19 08:31:49 51°9.089 2°35.895 7.659666 3.457856 33.422837 12.904768
2004-03-19 08:31:54 51°9.082 2°35.867 7.659666 3.457856 33.422837 12.904768
2004-03-19 08:31:59 51°9.075 2°35.84 7.656602 3.462491 33.469375 12.702512
2004-03-19 08:32:03 51°9.069 2°35.817 7.652809 3.458909 33.430113 13.039606
2004-03-19 08:32:09 51°9.06 2°35.784 7.649404 3.454484 33.380201 12.702512
2004-03-19 08:32:14 51°9.053 2°35.756 7.645951 3.46365 33.47697 12.972187
2004-03-19 08:32:19 51°9.046 2°35.728 7.639822 3.464703 33.489089 12.837349
2004-03-19 08:32:25 51°9.038 2°35.695 7.639822 3.464703 33.489089 12.837349
2004-03-19 08:32:29 51°9.032 2°35.673 7.635687 3.464809 33.492645 12.904768
2004-03-19 08:32:34 51°9.025 2°35.645 7.629168 3.461437 33.460487 13.511537
2004-03-19 08:32:39 51°9.018 2°35.616 7.624156 3.464493 33.494911 13.208153
2004-03-19 08:32:45 51°9.01 2°35.583 7.618755 3.468391 33.541635 13.039606
2004-03-19 08:32:49 51°9.004 2°35.56 7.617344 3.46228 33.480044 12.702512
2004-03-19 08:32:54 51°8.997 2°35.532 7.617344 3.46228 33.480044 12.702512
2004-03-19 08:32:59 51°8.99 2°35.505 7.616176 3.467969 33.546828 13.107024
2004-03-19 08:33:05 51°8.982 2°35.471 7.614327 3.463545 33.501714 13.107024
2004-03-19 08:33:09 51°8.976 2°35.448 7.61384 3.45459 33.410363 13.039606
2004-03-19 08:33:14 51°8.969 2°35.421 7.614327 3.464493 33.519998 13.275571
2004-03-19 08:33:19 51°8.962 2°35.393 7.613937 3.467443 33.554947 12.972187
2004-03-19 08:33:25 51°8.953 2°35.359 7.613937 3.467443 33.554947 12.972187
2004-03-19 08:33:29 51°8.947 2°35.337 7.616614 3.466284 33.5433 12.702512
2004-03-19 08:33:34 51°8.94 2°35.309 7.618025 3.423092 33.081052 13.005896
2004-03-19 08:33:39 51°8.933 2°35.281 7.616517 3.46365 33.517419 13.140734
2004-03-19 08:33:43 51°8.927 2°35.259 7.614521 3.454485 33.418112 12.80364
2004-03-19 08:33:49 51°8.918 2°35.225 7.611991 3.455644 33.429755 13.208153
2004-03-19 08:33:54 51°8.911 2°35.197 7.611991 3.455644 33.429755 13.208153
2004-03-19 08:33:59 51°8.904 2°35.169 7.608681 3.456592 33.439135 13.208153
2004-03-19 08:34:05 51°8.895 2°35.135 7.606881 3.440368 33.264075 12.938477
2004-03-19 08:34:09 51°8.889 2°35.112 7.60396 3.465757 33.538448 13.241862
2004-03-19 08:34:14 51°8.882 2°35.084 7.606443 3.460806 33.486846 13.039606
2004-03-19 08:34:19 51°8.875 2°35.057 7.607805 3.467021 33.556904 12.938477
2004-03-19 08:34:24 51°8.868 2°35.029 7.607805 3.467021 33.556904 12.938477
2004-03-19 08:34:29 51°8.861 2°35 7.60946 3.457435 33.456276 13.140734
2004-03-19 08:34:34 51°8.853 2°34.972 7.611018 3.467127 33.561282 13.208153
2004-03-19 08:34:39 51°8.846 2°34.945 7.612478 3.46344 33.522446 13.208153
2004-03-19 08:34:45 51°8.838 2°34.912 7.613937 3.466811 33.557883 13.107024
2004-03-19 08:34:49 51°8.832 2°34.889 7.611894 3.465968 33.54801 13.140734
2004-03-19 08:34:54 51°8.825 2°34.861 7.611894 3.465968 33.54801 13.140734
2004-03-19 08:34:59 51°8.818 2°34.833 7.611358 3.45596 33.438808 13.3767
2004-03-19 08:35:03 51°8.812 2°34.811 7.602257 3.464072 33.52357 13.174443
2004-03-19 08:35:09 51°8.804 2°34.777 7.594663 3.459963 33.479406 12.567674
2004-03-19 08:35:14 51°8.797 2°34.749 7.586047 3.465336 33.537971 13.107024
2004-03-19 08:35:19 51°8.79 2°34.722 7.579717 3.467759 33.564022 13.241862
2004-03-19 08:35:25 51°8.782 2°34.688 7.579717 3.467759 33.564022 13.241862
2004-03-19 08:35:29 51°8.777 2°34.666 7.574799 3.468391 33.575688 12.938477
2004-03-19 08:35:34 51°8.769 2°34.638 7.567543 3.465336 33.548512 13.107024
2004-03-19 08:35:39 51°8.763 2°34.611 7.56428 3.464915 33.552092 12.938477
2004-03-19 08:35:45 51°8.754 2°34.577 7.562332 3.467443 33.584977 13.005896
2004-03-19 08:35:49 51°8.748 2°34.555 7.552298 3.451957 33.424065 13.241862
2004-03-19 08:35:54 51°8.741 2°34.527 7.552298 3.451957 33.424065 13.241862
2004-03-19 08:35:59 51°8.733 2°34.499 7.54694 3.467232 33.594086 13.241862
2004-03-19 08:36:05 51°8.725 2°34.466 7.541094 3.465126 33.575471 13.174443
2004-03-19 08:36:09 51°8.719 2°34.443 7.536222 3.459963 33.523971 12.938477
2004-03-19 08:36:14 51°8.712 2°34.416 7.532177 3.463651 33.56772 13.140734